<?xml version="1.0" encoding="UTF-8" standalone="no" ?>
<gpx xmlns="http://www.topografix.com/GPX/1/1" xmlns:xsi="http://www.w3.org/2001/XMLSchema-instance" xsi:schemaLocation="http://www.topografix.com/GPX/1/1 http://www.topografix.com/GPX/1/1/gpx.xsd" version="1.1" creator="VisuGPX - https://www.visugpx.com">
  <metadata>
    <name>Circuit Prémanon Hispano Suiza Ferme Pédagogique </name>
    <desc><![CDATA[A partir d\'Hispano Suiza, circuit de niveau facile à moyen, mi route mi chemin]]></desc>
  </metadata>
  <trk>
    <name><![CDATA[16/08/2012 18:26]]></name>
    <desc><![CDATA[]]></desc>
    <trkseg>
      <trkpt lat="46.45819" lon="6.0498">
        <ele>1168.3</ele>
        <time>2012-08-16T16:27:03.933Z</time>
      </trkpt>
      <trkpt lat="46.45813" lon="6.04973">
        <ele>1166.5</ele>
        <time>2012-08-16T16:27:04.992Z</time>
      </trkpt>
      <trkpt lat="46.45812" lon="6.04966">
        <ele>1175.1</ele>
        <time>2012-08-16T16:27:48.000Z</time>
      </trkpt>
      <trkpt lat="46.4581" lon="6.0496">
        <ele>1174.9</ele>
        <time>2012-08-16T16:27:52.000Z</time>
      </trkpt>
      <trkpt lat="46.45807" lon="6.04954">
        <ele>1175.8</ele>
        <time>2012-08-16T16:27:55.000Z</time>
      </trkpt>
      <trkpt lat="46.45803" lon="6.0495">
        <ele>1172.4</ele>
        <time>2012-08-16T16:28:06.000Z</time>
      </trkpt>
      <trkpt lat="46.458" lon="6.04943">
        <ele>1172.9</ele>
        <time>2012-08-16T16:28:09.000Z</time>
      </trkpt>
      <trkpt lat="46.45797" lon="6.04937">
        <ele>1172.3</ele>
        <time>2012-08-16T16:28:11.000Z</time>
      </trkpt>
      <trkpt lat="46.45792" lon="6.0493">
        <ele>1172.5</ele>
        <time>2012-08-16T16:28:14.000Z</time>
      </trkpt>
      <trkpt lat="46.45789" lon="6.04922">
        <ele>1175.1</ele>
        <time>2012-08-16T16:28:39.000Z</time>
      </trkpt>
      <trkpt lat="46.45786" lon="6.04917">
        <ele>1174.8</ele>
        <time>2012-08-16T16:28:41.000Z</time>
      </trkpt>
      <trkpt lat="46.45781" lon="6.04914">
        <ele>1173.5</ele>
        <time>2012-08-16T16:28:43.000Z</time>
      </trkpt>
      <trkpt lat="46.45775" lon="6.04914">
        <ele>1173</ele>
        <time>2012-08-16T16:28:45.000Z</time>
      </trkpt>
      <trkpt lat="46.4577" lon="6.04915">
        <ele>1178.1</ele>
        <time>2012-08-16T16:28:47.000Z</time>
      </trkpt>
      <trkpt lat="46.45764" lon="6.04916">
        <ele>1178.8</ele>
        <time>2012-08-16T16:28:50.000Z</time>
      </trkpt>
      <trkpt lat="46.45758" lon="6.04915">
        <ele>1180.8</ele>
        <time>2012-08-16T16:28:53.000Z</time>
      </trkpt>
      <trkpt lat="46.45753" lon="6.04912">
        <ele>1182.3</ele>
        <time>2012-08-16T16:28:55.000Z</time>
      </trkpt>
      <trkpt lat="46.45749" lon="6.04909">
        <ele>1187.2</ele>
        <time>2012-08-16T16:28:57.000Z</time>
      </trkpt>
      <trkpt lat="46.45743" lon="6.04905">
        <ele>1192.2</ele>
        <time>2012-08-16T16:29:00.000Z</time>
      </trkpt>
      <trkpt lat="46.45738" lon="6.04899">
        <ele>1193.4</ele>
        <time>2012-08-16T16:29:03.000Z</time>
      </trkpt>
      <trkpt lat="46.45734" lon="6.04891">
        <ele>1193.1</ele>
        <time>2012-08-16T16:29:06.000Z</time>
      </trkpt>
      <trkpt lat="46.45732" lon="6.04885">
        <ele>1192.6</ele>
        <time>2012-08-16T16:29:08.000Z</time>
      </trkpt>
      <trkpt lat="46.4573" lon="6.04878">
        <ele>1193.1</ele>
        <time>2012-08-16T16:29:10.000Z</time>
      </trkpt>
      <trkpt lat="46.45729" lon="6.04872">
        <ele>1193.3</ele>
        <time>2012-08-16T16:29:12.000Z</time>
      </trkpt>
      <trkpt lat="46.45727" lon="6.04865">
        <ele>1192.8</ele>
        <time>2012-08-16T16:29:14.000Z</time>
      </trkpt>
      <trkpt lat="46.45726" lon="6.04859">
        <ele>1191.7</ele>
        <time>2012-08-16T16:29:16.000Z</time>
      </trkpt>
      <trkpt lat="46.45725" lon="6.04852">
        <ele>1191.4</ele>
        <time>2012-08-16T16:29:18.000Z</time>
      </trkpt>
      <trkpt lat="46.45723" lon="6.04845">
        <ele>1190</ele>
        <time>2012-08-16T16:29:20.000Z</time>
      </trkpt>
      <trkpt lat="46.45721" lon="6.04836">
        <ele>1190.2</ele>
        <time>2012-08-16T16:29:23.000Z</time>
      </trkpt>
      <trkpt lat="46.45717" lon="6.04828">
        <ele>1191.6</ele>
        <time>2012-08-16T16:29:26.000Z</time>
      </trkpt>
      <trkpt lat="46.45714" lon="6.04819">
        <ele>1192</ele>
        <time>2012-08-16T16:29:29.000Z</time>
      </trkpt>
      <trkpt lat="46.45709" lon="6.04812">
        <ele>1191.4</ele>
        <time>2012-08-16T16:29:32.000Z</time>
      </trkpt>
      <trkpt lat="46.45704" lon="6.04807">
        <ele>1193.5</ele>
        <time>2012-08-16T16:29:35.000Z</time>
      </trkpt>
      <trkpt lat="46.457" lon="6.04804">
        <ele>1197.6</ele>
        <time>2012-08-16T16:29:38.000Z</time>
      </trkpt>
      <trkpt lat="46.45696" lon="6.04799">
        <ele>1199.9</ele>
        <time>2012-08-16T16:29:41.000Z</time>
      </trkpt>
      <trkpt lat="46.45692" lon="6.04794">
        <ele>1210.2</ele>
        <time>2012-08-16T16:29:44.000Z</time>
      </trkpt>
      <trkpt lat="46.45687" lon="6.04789">
        <ele>1213.4</ele>
        <time>2012-08-16T16:29:47.000Z</time>
      </trkpt>
      <trkpt lat="46.45683" lon="6.04785">
        <ele>1217.2</ele>
        <time>2012-08-16T16:29:50.000Z</time>
      </trkpt>
      <trkpt lat="46.45679" lon="6.04779">
        <ele>1218.6</ele>
        <time>2012-08-16T16:29:54.000Z</time>
      </trkpt>
      <trkpt lat="46.45674" lon="6.04773">
        <ele>1222.9</ele>
        <time>2012-08-16T16:29:57.000Z</time>
      </trkpt>
      <trkpt lat="46.4567" lon="6.04768">
        <ele>1224.7</ele>
        <time>2012-08-16T16:29:59.000Z</time>
      </trkpt>
      <trkpt lat="46.45666" lon="6.04764">
        <ele>1226.5</ele>
        <time>2012-08-16T16:30:01.000Z</time>
      </trkpt>
      <trkpt lat="46.45661" lon="6.04758">
        <ele>1230.1</ele>
        <time>2012-08-16T16:30:04.000Z</time>
      </trkpt>
      <trkpt lat="46.45658" lon="6.04752">
        <ele>1229.8</ele>
        <time>2012-08-16T16:30:07.000Z</time>
      </trkpt>
      <trkpt lat="46.45655" lon="6.04747">
        <ele>1235.7</ele>
        <time>2012-08-16T16:30:10.000Z</time>
      </trkpt>
      <trkpt lat="46.45654" lon="6.04738">
        <ele>1222.8</ele>
        <time>2012-08-16T16:30:14.000Z</time>
      </trkpt>
      <trkpt lat="46.45654" lon="6.04732">
        <ele>1221.2</ele>
        <time>2012-08-16T16:30:17.000Z</time>
      </trkpt>
      <trkpt lat="46.4565" lon="6.04728">
        <ele>1219.4</ele>
        <time>2012-08-16T16:30:21.000Z</time>
      </trkpt>
      <trkpt lat="46.45645" lon="6.04726">
        <ele>1228.5</ele>
        <time>2012-08-16T16:30:27.000Z</time>
      </trkpt>
      <trkpt lat="46.4564" lon="6.04726">
        <ele>1231.6</ele>
        <time>2012-08-16T16:30:31.000Z</time>
      </trkpt>
      <trkpt lat="46.45634" lon="6.04729">
        <ele>1230.8</ele>
        <time>2012-08-16T16:30:34.000Z</time>
      </trkpt>
      <trkpt lat="46.45628" lon="6.04729">
        <ele>1230.4</ele>
        <time>2012-08-16T16:30:36.000Z</time>
      </trkpt>
      <trkpt lat="46.45622" lon="6.04727">
        <ele>1232.6</ele>
        <time>2012-08-16T16:30:38.000Z</time>
      </trkpt>
      <trkpt lat="46.45617" lon="6.04726">
        <ele>1231.4</ele>
        <time>2012-08-16T16:30:40.000Z</time>
      </trkpt>
      <trkpt lat="46.45612" lon="6.04727">
        <ele>1230.4</ele>
        <time>2012-08-16T16:30:42.000Z</time>
      </trkpt>
      <trkpt lat="46.45609" lon="6.04732">
        <ele>1230.8</ele>
        <time>2012-08-16T16:30:44.000Z</time>
      </trkpt>
      <trkpt lat="46.45604" lon="6.04738">
        <ele>1229.1</ele>
        <time>2012-08-16T16:30:46.000Z</time>
      </trkpt>
      <trkpt lat="46.45599" lon="6.04743">
        <ele>1227.4</ele>
        <time>2012-08-16T16:30:48.000Z</time>
      </trkpt>
      <trkpt lat="46.45594" lon="6.04748">
        <ele>1225.8</ele>
        <time>2012-08-16T16:30:50.000Z</time>
      </trkpt>
      <trkpt lat="46.45589" lon="6.04753">
        <ele>1225.8</ele>
        <time>2012-08-16T16:30:52.000Z</time>
      </trkpt>
      <trkpt lat="46.45584" lon="6.04758">
        <ele>1224.2</ele>
        <time>2012-08-16T16:30:54.000Z</time>
      </trkpt>
      <trkpt lat="46.45578" lon="6.04762">
        <ele>1222.4</ele>
        <time>2012-08-16T16:30:56.000Z</time>
      </trkpt>
      <trkpt lat="46.45574" lon="6.04766">
        <ele>1221.1</ele>
        <time>2012-08-16T16:30:58.000Z</time>
      </trkpt>
      <trkpt lat="46.4557" lon="6.0477">
        <ele>1219.9</ele>
        <time>2012-08-16T16:31:00.000Z</time>
      </trkpt>
      <trkpt lat="46.45565" lon="6.04776">
        <ele>1216.9</ele>
        <time>2012-08-16T16:31:03.000Z</time>
      </trkpt>
      <trkpt lat="46.4556" lon="6.04778">
        <ele>1213.9</ele>
        <time>2012-08-16T16:31:06.000Z</time>
      </trkpt>
      <trkpt lat="46.45554" lon="6.04778">
        <ele>1214.5</ele>
        <time>2012-08-16T16:31:09.000Z</time>
      </trkpt>
      <trkpt lat="46.4555" lon="6.04777">
        <ele>1214.4</ele>
        <time>2012-08-16T16:31:11.000Z</time>
      </trkpt>
      <trkpt lat="46.45542" lon="6.04779">
        <ele>1217.8</ele>
        <time>2012-08-16T16:31:14.000Z</time>
      </trkpt>
      <trkpt lat="46.45535" lon="6.04782">
        <ele>1216</ele>
        <time>2012-08-16T16:31:16.000Z</time>
      </trkpt>
      <trkpt lat="46.45528" lon="6.04786">
        <ele>1214</ele>
        <time>2012-08-16T16:31:18.000Z</time>
      </trkpt>
      <trkpt lat="46.45522" lon="6.0479">
        <ele>1217.1</ele>
        <time>2012-08-16T16:31:20.000Z</time>
      </trkpt>
      <trkpt lat="46.45516" lon="6.04795">
        <ele>1215.9</ele>
        <time>2012-08-16T16:31:22.000Z</time>
      </trkpt>
      <trkpt lat="46.45511" lon="6.048">
        <ele>1214.4</ele>
        <time>2012-08-16T16:31:24.000Z</time>
      </trkpt>
      <trkpt lat="46.45504" lon="6.04803">
        <ele>1217.6</ele>
        <time>2012-08-16T16:31:26.000Z</time>
      </trkpt>
      <trkpt lat="46.45499" lon="6.04807">
        <ele>1215.9</ele>
        <time>2012-08-16T16:31:28.000Z</time>
      </trkpt>
      <trkpt lat="46.45494" lon="6.0481">
        <ele>1214.7</ele>
        <time>2012-08-16T16:31:30.000Z</time>
      </trkpt>
      <trkpt lat="46.45489" lon="6.04813">
        <ele>1213.6</ele>
        <time>2012-08-16T16:31:32.000Z</time>
      </trkpt>
      <trkpt lat="46.45483" lon="6.04816">
        <ele>1214.3</ele>
        <time>2012-08-16T16:31:34.000Z</time>
      </trkpt>
      <trkpt lat="46.45478" lon="6.04818">
        <ele>1214.5</ele>
        <time>2012-08-16T16:31:36.000Z</time>
      </trkpt>
      <trkpt lat="46.45472" lon="6.0482">
        <ele>1214.2</ele>
        <time>2012-08-16T16:31:38.000Z</time>
      </trkpt>
      <trkpt lat="46.45465" lon="6.04822">
        <ele>1209.5</ele>
        <time>2012-08-16T16:31:40.000Z</time>
      </trkpt>
      <trkpt lat="46.45459" lon="6.04823">
        <ele>1210.6</ele>
        <time>2012-08-16T16:31:42.000Z</time>
      </trkpt>
      <trkpt lat="46.45453" lon="6.04824">
        <ele>1211.1</ele>
        <time>2012-08-16T16:31:44.000Z</time>
      </trkpt>
      <trkpt lat="46.45448" lon="6.04825">
        <ele>1208</ele>
        <time>2012-08-16T16:31:46.000Z</time>
      </trkpt>
      <trkpt lat="46.45442" lon="6.04826">
        <ele>1204.2</ele>
        <time>2012-08-16T16:31:48.000Z</time>
      </trkpt>
      <trkpt lat="46.45436" lon="6.04825">
        <ele>1203.3</ele>
        <time>2012-08-16T16:31:50.000Z</time>
      </trkpt>
      <trkpt lat="46.45432" lon="6.04826">
        <ele>1203.5</ele>
        <time>2012-08-16T16:31:52.000Z</time>
      </trkpt>
      <trkpt lat="46.45425" lon="6.04828">
        <ele>1202.2</ele>
        <time>2012-08-16T16:31:55.000Z</time>
      </trkpt>
      <trkpt lat="46.45421" lon="6.0483">
        <ele>1200.2</ele>
        <time>2012-08-16T16:31:57.000Z</time>
      </trkpt>
      <trkpt lat="46.45415" lon="6.04831">
        <ele>1197.8</ele>
        <time>2012-08-16T16:32:00.000Z</time>
      </trkpt>
      <trkpt lat="46.4541" lon="6.04832">
        <ele>1198</ele>
        <time>2012-08-16T16:32:03.000Z</time>
      </trkpt>
      <trkpt lat="46.45403" lon="6.04834">
        <ele>1198.7</ele>
        <time>2012-08-16T16:32:06.000Z</time>
      </trkpt>
      <trkpt lat="46.45398" lon="6.04836">
        <ele>1197.6</ele>
        <time>2012-08-16T16:32:08.000Z</time>
      </trkpt>
      <trkpt lat="46.45393" lon="6.04837">
        <ele>1200.1</ele>
        <time>2012-08-16T16:32:10.000Z</time>
      </trkpt>
      <trkpt lat="46.45386" lon="6.04839">
        <ele>1201.3</ele>
        <time>2012-08-16T16:32:13.000Z</time>
      </trkpt>
      <trkpt lat="46.45382" lon="6.0484">
        <ele>1201.6</ele>
        <time>2012-08-16T16:32:16.000Z</time>
      </trkpt>
      <trkpt lat="46.45375" lon="6.04842">
        <ele>1197.7</ele>
        <time>2012-08-16T16:32:20.000Z</time>
      </trkpt>
      <trkpt lat="46.45369" lon="6.04842">
        <ele>1195.6</ele>
        <time>2012-08-16T16:32:23.000Z</time>
      </trkpt>
      <trkpt lat="46.45361" lon="6.04843">
        <ele>1195.2</ele>
        <time>2012-08-16T16:32:26.000Z</time>
      </trkpt>
      <trkpt lat="46.45357" lon="6.04843">
        <ele>1194.6</ele>
        <time>2012-08-16T16:32:28.000Z</time>
      </trkpt>
      <trkpt lat="46.45352" lon="6.04844">
        <ele>1195</ele>
        <time>2012-08-16T16:32:30.000Z</time>
      </trkpt>
      <trkpt lat="46.45347" lon="6.04844">
        <ele>1196.7</ele>
        <time>2012-08-16T16:32:32.000Z</time>
      </trkpt>
      <trkpt lat="46.45342" lon="6.04845">
        <ele>1197.2</ele>
        <time>2012-08-16T16:32:34.000Z</time>
      </trkpt>
      <trkpt lat="46.45337" lon="6.04845">
        <ele>1197.3</ele>
        <time>2012-08-16T16:32:36.000Z</time>
      </trkpt>
      <trkpt lat="46.45332" lon="6.04845">
        <ele>1198.6</ele>
        <time>2012-08-16T16:32:42.000Z</time>
      </trkpt>
      <trkpt lat="46.45327" lon="6.04845">
        <ele>1203.7</ele>
        <time>2012-08-16T16:32:45.000Z</time>
      </trkpt>
      <trkpt lat="46.45322" lon="6.04845">
        <ele>1205.9</ele>
        <time>2012-08-16T16:32:47.000Z</time>
      </trkpt>
      <trkpt lat="46.45315" lon="6.04846">
        <ele>1210.4</ele>
        <time>2012-08-16T16:32:50.000Z</time>
      </trkpt>
      <trkpt lat="46.45309" lon="6.04846">
        <ele>1213.8</ele>
        <time>2012-08-16T16:32:52.000Z</time>
      </trkpt>
      <trkpt lat="46.45304" lon="6.04847">
        <ele>1214.5</ele>
        <time>2012-08-16T16:32:54.000Z</time>
      </trkpt>
      <trkpt lat="46.45298" lon="6.04846">
        <ele>1214.9</ele>
        <time>2012-08-16T16:32:56.000Z</time>
      </trkpt>
      <trkpt lat="46.45294" lon="6.04846">
        <ele>1215.1</ele>
        <time>2012-08-16T16:32:58.000Z</time>
      </trkpt>
      <trkpt lat="46.45289" lon="6.04845">
        <ele>1215.9</ele>
        <time>2012-08-16T16:33:00.000Z</time>
      </trkpt>
      <trkpt lat="46.45284" lon="6.04845">
        <ele>1220.8</ele>
        <time>2012-08-16T16:33:02.000Z</time>
      </trkpt>
      <trkpt lat="46.45278" lon="6.04844">
        <ele>1220.8</ele>
        <time>2012-08-16T16:33:04.000Z</time>
      </trkpt>
      <trkpt lat="46.45272" lon="6.04842">
        <ele>1217.8</ele>
        <time>2012-08-16T16:33:06.000Z</time>
      </trkpt>
      <trkpt lat="46.45265" lon="6.04838">
        <ele>1213.5</ele>
        <time>2012-08-16T16:33:08.000Z</time>
      </trkpt>
      <trkpt lat="46.45259" lon="6.04834">
        <ele>1208.6</ele>
        <time>2012-08-16T16:33:10.000Z</time>
      </trkpt>
      <trkpt lat="46.45252" lon="6.0483">
        <ele>1205.3</ele>
        <time>2012-08-16T16:33:12.000Z</time>
      </trkpt>
      <trkpt lat="46.45246" lon="6.04825">
        <ele>1202.3</ele>
        <time>2012-08-16T16:33:14.000Z</time>
      </trkpt>
      <trkpt lat="46.45239" lon="6.04821">
        <ele>1201.5</ele>
        <time>2012-08-16T16:33:16.000Z</time>
      </trkpt>
      <trkpt lat="46.45233" lon="6.04818">
        <ele>1201.5</ele>
        <time>2012-08-16T16:33:18.000Z</time>
      </trkpt>
      <trkpt lat="46.45228" lon="6.04814">
        <ele>1199.3</ele>
        <time>2012-08-16T16:33:20.000Z</time>
      </trkpt>
      <trkpt lat="46.45222" lon="6.04811">
        <ele>1198.4</ele>
        <time>2012-08-16T16:33:22.000Z</time>
      </trkpt>
      <trkpt lat="46.45217" lon="6.04807">
        <ele>1197.5</ele>
        <time>2012-08-16T16:33:24.000Z</time>
      </trkpt>
      <trkpt lat="46.45212" lon="6.04804">
        <ele>1197.4</ele>
        <time>2012-08-16T16:33:26.000Z</time>
      </trkpt>
      <trkpt lat="46.45207" lon="6.04801">
        <ele>1196.1</ele>
        <time>2012-08-16T16:33:28.000Z</time>
      </trkpt>
      <trkpt lat="46.45202" lon="6.04798">
        <ele>1194.2</ele>
        <time>2012-08-16T16:33:30.000Z</time>
      </trkpt>
      <trkpt lat="46.45197" lon="6.04794">
        <ele>1193.1</ele>
        <time>2012-08-16T16:33:32.000Z</time>
      </trkpt>
      <trkpt lat="46.45193" lon="6.0479">
        <ele>1193.4</ele>
        <time>2012-08-16T16:33:34.000Z</time>
      </trkpt>
      <trkpt lat="46.45189" lon="6.04787">
        <ele>1191.2</ele>
        <time>2012-08-16T16:33:36.000Z</time>
      </trkpt>
      <trkpt lat="46.45184" lon="6.04783">
        <ele>1190.9</ele>
        <time>2012-08-16T16:33:38.000Z</time>
      </trkpt>
      <trkpt lat="46.45179" lon="6.0478">
        <ele>1188.5</ele>
        <time>2012-08-16T16:33:40.000Z</time>
      </trkpt>
      <trkpt lat="46.45174" lon="6.04776">
        <ele>1187.8</ele>
        <time>2012-08-16T16:33:42.000Z</time>
      </trkpt>
      <trkpt lat="46.4517" lon="6.04772">
        <ele>1188.7</ele>
        <time>2012-08-16T16:33:44.000Z</time>
      </trkpt>
      <trkpt lat="46.45165" lon="6.04767">
        <ele>1186.1</ele>
        <time>2012-08-16T16:33:46.000Z</time>
      </trkpt>
      <trkpt lat="46.4516" lon="6.04761">
        <ele>1186.2</ele>
        <time>2012-08-16T16:33:48.000Z</time>
      </trkpt>
      <trkpt lat="46.45156" lon="6.04756">
        <ele>1185.7</ele>
        <time>2012-08-16T16:33:50.000Z</time>
      </trkpt>
      <trkpt lat="46.45151" lon="6.04753">
        <ele>1183.9</ele>
        <time>2012-08-16T16:33:52.000Z</time>
      </trkpt>
      <trkpt lat="46.45146" lon="6.04751">
        <ele>1184</ele>
        <time>2012-08-16T16:33:54.000Z</time>
      </trkpt>
      <trkpt lat="46.45142" lon="6.0475">
        <ele>1184.3</ele>
        <time>2012-08-16T16:33:56.000Z</time>
      </trkpt>
      <trkpt lat="46.45136" lon="6.04748">
        <ele>1183.8</ele>
        <time>2012-08-16T16:33:59.000Z</time>
      </trkpt>
      <trkpt lat="46.4513" lon="6.04746">
        <ele>1184.2</ele>
        <time>2012-08-16T16:34:02.000Z</time>
      </trkpt>
      <trkpt lat="46.45124" lon="6.04742">
        <ele>1183.8</ele>
        <time>2012-08-16T16:34:05.000Z</time>
      </trkpt>
      <trkpt lat="46.4512" lon="6.04739">
        <ele>1183.8</ele>
        <time>2012-08-16T16:34:07.000Z</time>
      </trkpt>
      <trkpt lat="46.45116" lon="6.04734">
        <ele>1183.4</ele>
        <time>2012-08-16T16:34:09.000Z</time>
      </trkpt>
      <trkpt lat="46.45112" lon="6.04728">
        <ele>1183.6</ele>
        <time>2012-08-16T16:34:11.000Z</time>
      </trkpt>
      <trkpt lat="46.45109" lon="6.04721">
        <ele>1182.5</ele>
        <time>2012-08-16T16:34:13.000Z</time>
      </trkpt>
      <trkpt lat="46.45106" lon="6.04714">
        <ele>1182.1</ele>
        <time>2012-08-16T16:34:15.000Z</time>
      </trkpt>
      <trkpt lat="46.45102" lon="6.04708">
        <ele>1180.6</ele>
        <time>2012-08-16T16:34:17.000Z</time>
      </trkpt>
      <trkpt lat="46.45099" lon="6.04702">
        <ele>1181.8</ele>
        <time>2012-08-16T16:34:19.000Z</time>
      </trkpt>
      <trkpt lat="46.45096" lon="6.04696">
        <ele>1183.4</ele>
        <time>2012-08-16T16:34:21.000Z</time>
      </trkpt>
      <trkpt lat="46.45092" lon="6.04691">
        <ele>1185.3</ele>
        <time>2012-08-16T16:34:23.000Z</time>
      </trkpt>
      <trkpt lat="46.45088" lon="6.04684">
        <ele>1186.5</ele>
        <time>2012-08-16T16:34:26.000Z</time>
      </trkpt>
      <trkpt lat="46.45083" lon="6.0468">
        <ele>1187.3</ele>
        <time>2012-08-16T16:34:29.000Z</time>
      </trkpt>
      <trkpt lat="46.45078" lon="6.04678">
        <ele>1186.2</ele>
        <time>2012-08-16T16:34:31.000Z</time>
      </trkpt>
      <trkpt lat="46.45073" lon="6.04676">
        <ele>1184.7</ele>
        <time>2012-08-16T16:34:33.000Z</time>
      </trkpt>
      <trkpt lat="46.45068" lon="6.04672">
        <ele>1185.1</ele>
        <time>2012-08-16T16:34:35.000Z</time>
      </trkpt>
      <trkpt lat="46.45064" lon="6.04668">
        <ele>1186.3</ele>
        <time>2012-08-16T16:34:37.000Z</time>
      </trkpt>
      <trkpt lat="46.45061" lon="6.04664">
        <ele>1186</ele>
        <time>2012-08-16T16:34:39.000Z</time>
      </trkpt>
      <trkpt lat="46.45057" lon="6.04659">
        <ele>1185.5</ele>
        <time>2012-08-16T16:34:41.000Z</time>
      </trkpt>
      <trkpt lat="46.45054" lon="6.04654">
        <ele>1184.1</ele>
        <time>2012-08-16T16:34:43.000Z</time>
      </trkpt>
      <trkpt lat="46.4505" lon="6.0465">
        <ele>1183.4</ele>
        <time>2012-08-16T16:34:45.000Z</time>
      </trkpt>
      <trkpt lat="46.45046" lon="6.04645">
        <ele>1183.2</ele>
        <time>2012-08-16T16:34:47.000Z</time>
      </trkpt>
      <trkpt lat="46.45042" lon="6.04638">
        <ele>1182.9</ele>
        <time>2012-08-16T16:34:50.000Z</time>
      </trkpt>
      <trkpt lat="46.45038" lon="6.0463">
        <ele>1185.1</ele>
        <time>2012-08-16T16:34:53.000Z</time>
      </trkpt>
      <trkpt lat="46.45036" lon="6.04624">
        <ele>1186</ele>
        <time>2012-08-16T16:34:55.000Z</time>
      </trkpt>
      <trkpt lat="46.45032" lon="6.04618">
        <ele>1186.8</ele>
        <time>2012-08-16T16:34:57.000Z</time>
      </trkpt>
      <trkpt lat="46.45029" lon="6.04612">
        <ele>1186</ele>
        <time>2012-08-16T16:34:59.000Z</time>
      </trkpt>
      <trkpt lat="46.45026" lon="6.04606">
        <ele>1185.5</ele>
        <time>2012-08-16T16:35:01.000Z</time>
      </trkpt>
      <trkpt lat="46.45022" lon="6.04601">
        <ele>1187</ele>
        <time>2012-08-16T16:35:03.000Z</time>
      </trkpt>
      <trkpt lat="46.45017" lon="6.04596">
        <ele>1187.1</ele>
        <time>2012-08-16T16:35:05.000Z</time>
      </trkpt>
      <trkpt lat="46.45014" lon="6.04591">
        <ele>1187.4</ele>
        <time>2012-08-16T16:35:07.000Z</time>
      </trkpt>
      <trkpt lat="46.45009" lon="6.04586">
        <ele>1186.2</ele>
        <time>2012-08-16T16:35:09.000Z</time>
      </trkpt>
      <trkpt lat="46.45005" lon="6.04581">
        <ele>1186</ele>
        <time>2012-08-16T16:35:11.000Z</time>
      </trkpt>
      <trkpt lat="46.45002" lon="6.04576">
        <ele>1185.9</ele>
        <time>2012-08-16T16:35:13.000Z</time>
      </trkpt>
      <trkpt lat="46.44997" lon="6.0457">
        <ele>1185.8</ele>
        <time>2012-08-16T16:35:16.000Z</time>
      </trkpt>
      <trkpt lat="46.44993" lon="6.04566">
        <ele>1185.4</ele>
        <time>2012-08-16T16:35:18.000Z</time>
      </trkpt>
      <trkpt lat="46.44989" lon="6.04562">
        <ele>1184.1</ele>
        <time>2012-08-16T16:35:20.000Z</time>
      </trkpt>
      <trkpt lat="46.44984" lon="6.04558">
        <ele>1184.4</ele>
        <time>2012-08-16T16:35:22.000Z</time>
      </trkpt>
      <trkpt lat="46.44979" lon="6.04555">
        <ele>1184.2</ele>
        <time>2012-08-16T16:35:24.000Z</time>
      </trkpt>
      <trkpt lat="46.44974" lon="6.04552">
        <ele>1183.9</ele>
        <time>2012-08-16T16:35:27.000Z</time>
      </trkpt>
      <trkpt lat="46.44969" lon="6.0455">
        <ele>1182.7</ele>
        <time>2012-08-16T16:35:30.000Z</time>
      </trkpt>
      <trkpt lat="46.44964" lon="6.04548">
        <ele>1182.6</ele>
        <time>2012-08-16T16:35:33.000Z</time>
      </trkpt>
      <trkpt lat="46.44958" lon="6.04546">
        <ele>1182.9</ele>
        <time>2012-08-16T16:35:36.000Z</time>
      </trkpt>
      <trkpt lat="46.44954" lon="6.04544">
        <ele>1184.5</ele>
        <time>2012-08-16T16:35:39.000Z</time>
      </trkpt>
      <trkpt lat="46.44949" lon="6.04541">
        <ele>1186</ele>
        <time>2012-08-16T16:35:43.000Z</time>
      </trkpt>
      <trkpt lat="46.44945" lon="6.04537">
        <ele>1187.8</ele>
        <time>2012-08-16T16:35:46.000Z</time>
      </trkpt>
      <trkpt lat="46.44938" lon="6.04535">
        <ele>1198.2</ele>
        <time>2012-08-16T16:35:49.000Z</time>
      </trkpt>
      <trkpt lat="46.44934" lon="6.04534">
        <ele>1201.7</ele>
        <time>2012-08-16T16:35:51.000Z</time>
      </trkpt>
      <trkpt lat="46.44928" lon="6.0453">
        <ele>1202.5</ele>
        <time>2012-08-16T16:35:54.000Z</time>
      </trkpt>
      <trkpt lat="46.44923" lon="6.04526">
        <ele>1203.5</ele>
        <time>2012-08-16T16:35:57.000Z</time>
      </trkpt>
      <trkpt lat="46.44918" lon="6.04522">
        <ele>1203</ele>
        <time>2012-08-16T16:35:59.000Z</time>
      </trkpt>
      <trkpt lat="46.44914" lon="6.04519">
        <ele>1202</ele>
        <time>2012-08-16T16:36:01.000Z</time>
      </trkpt>
      <trkpt lat="46.4491" lon="6.04515">
        <ele>1203.2</ele>
        <time>2012-08-16T16:36:05.000Z</time>
      </trkpt>
      <trkpt lat="46.44906" lon="6.04509">
        <ele>1199.5</ele>
        <time>2012-08-16T16:36:09.000Z</time>
      </trkpt>
      <trkpt lat="46.44902" lon="6.04502">
        <ele>1197</ele>
        <time>2012-08-16T16:36:12.000Z</time>
      </trkpt>
      <trkpt lat="46.44895" lon="6.04499">
        <ele>1197.4</ele>
        <time>2012-08-16T16:36:14.000Z</time>
      </trkpt>
      <trkpt lat="46.44888" lon="6.04496">
        <ele>1197.9</ele>
        <time>2012-08-16T16:36:16.000Z</time>
      </trkpt>
      <trkpt lat="46.44882" lon="6.04494">
        <ele>1199.1</ele>
        <time>2012-08-16T16:36:18.000Z</time>
      </trkpt>
      <trkpt lat="46.44877" lon="6.04492">
        <ele>1199.4</ele>
        <time>2012-08-16T16:36:20.000Z</time>
      </trkpt>
      <trkpt lat="46.44872" lon="6.0449">
        <ele>1199</ele>
        <time>2012-08-16T16:36:22.000Z</time>
      </trkpt>
      <trkpt lat="46.44866" lon="6.04487">
        <ele>1194.2</ele>
        <time>2012-08-16T16:36:24.000Z</time>
      </trkpt>
      <trkpt lat="46.44858" lon="6.04486">
        <ele>1191.9</ele>
        <time>2012-08-16T16:36:26.000Z</time>
      </trkpt>
      <trkpt lat="46.44852" lon="6.04483">
        <ele>1187.6</ele>
        <time>2012-08-16T16:36:28.000Z</time>
      </trkpt>
      <trkpt lat="46.44846" lon="6.04482">
        <ele>1186.3</ele>
        <time>2012-08-16T16:36:30.000Z</time>
      </trkpt>
      <trkpt lat="46.44842" lon="6.0448">
        <ele>1184.9</ele>
        <time>2012-08-16T16:36:32.000Z</time>
      </trkpt>
      <trkpt lat="46.44836" lon="6.04478">
        <ele>1186.5</ele>
        <time>2012-08-16T16:36:35.000Z</time>
      </trkpt>
      <trkpt lat="46.4483" lon="6.04474">
        <ele>1188.3</ele>
        <time>2012-08-16T16:36:39.000Z</time>
      </trkpt>
      <trkpt lat="46.44825" lon="6.04472">
        <ele>1189.1</ele>
        <time>2012-08-16T16:36:42.000Z</time>
      </trkpt>
      <trkpt lat="46.44819" lon="6.04468">
        <ele>1189.8</ele>
        <time>2012-08-16T16:36:45.000Z</time>
      </trkpt>
      <trkpt lat="46.44814" lon="6.04465">
        <ele>1192.1</ele>
        <time>2012-08-16T16:36:48.000Z</time>
      </trkpt>
      <trkpt lat="46.44808" lon="6.04464">
        <ele>1192.4</ele>
        <time>2012-08-16T16:36:52.000Z</time>
      </trkpt>
      <trkpt lat="46.44802" lon="6.04464">
        <ele>1194.2</ele>
        <time>2012-08-16T16:36:55.000Z</time>
      </trkpt>
      <trkpt lat="46.44798" lon="6.04466">
        <ele>1202.8</ele>
        <time>2012-08-16T16:37:03.000Z</time>
      </trkpt>
      <trkpt lat="46.44792" lon="6.04465">
        <ele>1204</ele>
        <time>2012-08-16T16:37:05.000Z</time>
      </trkpt>
      <trkpt lat="46.44788" lon="6.04462">
        <ele>1205.1</ele>
        <time>2012-08-16T16:37:07.000Z</time>
      </trkpt>
      <trkpt lat="46.44782" lon="6.04461">
        <ele>1204.7</ele>
        <time>2012-08-16T16:37:09.000Z</time>
      </trkpt>
      <trkpt lat="46.44778" lon="6.04459">
        <ele>1204.6</ele>
        <time>2012-08-16T16:37:11.000Z</time>
      </trkpt>
      <trkpt lat="46.44773" lon="6.04458">
        <ele>1206.2</ele>
        <time>2012-08-16T16:37:13.000Z</time>
      </trkpt>
      <trkpt lat="46.44768" lon="6.04456">
        <ele>1206.3</ele>
        <time>2012-08-16T16:37:15.000Z</time>
      </trkpt>
      <trkpt lat="46.44762" lon="6.04454">
        <ele>1204.8</ele>
        <time>2012-08-16T16:37:17.000Z</time>
      </trkpt>
      <trkpt lat="46.44756" lon="6.04453">
        <ele>1204.3</ele>
        <time>2012-08-16T16:37:19.000Z</time>
      </trkpt>
      <trkpt lat="46.44751" lon="6.04451">
        <ele>1203.8</ele>
        <time>2012-08-16T16:37:21.000Z</time>
      </trkpt>
      <trkpt lat="46.44745" lon="6.04448">
        <ele>1205.5</ele>
        <time>2012-08-16T16:37:24.000Z</time>
      </trkpt>
      <trkpt lat="46.44739" lon="6.04446">
        <ele>1208.2</ele>
        <time>2012-08-16T16:37:27.000Z</time>
      </trkpt>
      <trkpt lat="46.44733" lon="6.04445">
        <ele>1206.9</ele>
        <time>2012-08-16T16:37:30.000Z</time>
      </trkpt>
      <trkpt lat="46.44729" lon="6.04443">
        <ele>1210.5</ele>
        <time>2012-08-16T16:37:33.000Z</time>
      </trkpt>
      <trkpt lat="46.44724" lon="6.0444">
        <ele>1210.9</ele>
        <time>2012-08-16T16:37:36.000Z</time>
      </trkpt>
      <trkpt lat="46.44719" lon="6.04437">
        <ele>1211.3</ele>
        <time>2012-08-16T16:37:39.000Z</time>
      </trkpt>
      <trkpt lat="46.44713" lon="6.04434">
        <ele>1210.6</ele>
        <time>2012-08-16T16:37:42.000Z</time>
      </trkpt>
      <trkpt lat="46.44708" lon="6.04434">
        <ele>1216.2</ele>
        <time>2012-08-16T16:37:45.000Z</time>
      </trkpt>
      <trkpt lat="46.44703" lon="6.04435">
        <ele>1219.4</ele>
        <time>2012-08-16T16:37:49.000Z</time>
      </trkpt>
      <trkpt lat="46.44698" lon="6.04433">
        <ele>1219.1</ele>
        <time>2012-08-16T16:37:52.000Z</time>
      </trkpt>
      <trkpt lat="46.44693" lon="6.04432">
        <ele>1220</ele>
        <time>2012-08-16T16:37:54.000Z</time>
      </trkpt>
      <trkpt lat="46.44687" lon="6.04431">
        <ele>1219.7</ele>
        <time>2012-08-16T16:37:57.000Z</time>
      </trkpt>
      <trkpt lat="46.4468" lon="6.04429">
        <ele>1216.5</ele>
        <time>2012-08-16T16:38:01.000Z</time>
      </trkpt>
      <trkpt lat="46.44673" lon="6.04426">
        <ele>1216</ele>
        <time>2012-08-16T16:38:04.000Z</time>
      </trkpt>
      <trkpt lat="46.44667" lon="6.04424">
        <ele>1212.3</ele>
        <time>2012-08-16T16:38:06.000Z</time>
      </trkpt>
      <trkpt lat="46.44661" lon="6.04423">
        <ele>1211.3</ele>
        <time>2012-08-16T16:38:08.000Z</time>
      </trkpt>
      <trkpt lat="46.44654" lon="6.04423">
        <ele>1212.7</ele>
        <time>2012-08-16T16:38:10.000Z</time>
      </trkpt>
      <trkpt lat="46.44648" lon="6.04423">
        <ele>1212.9</ele>
        <time>2012-08-16T16:38:12.000Z</time>
      </trkpt>
      <trkpt lat="46.44642" lon="6.04421">
        <ele>1213.4</ele>
        <time>2012-08-16T16:38:14.000Z</time>
      </trkpt>
      <trkpt lat="46.44636" lon="6.0442">
        <ele>1214.1</ele>
        <time>2012-08-16T16:38:16.000Z</time>
      </trkpt>
      <trkpt lat="46.44631" lon="6.04419">
        <ele>1214.9</ele>
        <time>2012-08-16T16:38:18.000Z</time>
      </trkpt>
      <trkpt lat="46.44626" lon="6.04417">
        <ele>1215.4</ele>
        <time>2012-08-16T16:38:21.000Z</time>
      </trkpt>
      <trkpt lat="46.44619" lon="6.04415">
        <ele>1212.6</ele>
        <time>2012-08-16T16:38:26.000Z</time>
      </trkpt>
      <trkpt lat="46.44614" lon="6.04414">
        <ele>1210.3</ele>
        <time>2012-08-16T16:38:28.000Z</time>
      </trkpt>
      <trkpt lat="46.44608" lon="6.04414">
        <ele>1211</ele>
        <time>2012-08-16T16:38:30.000Z</time>
      </trkpt>
      <trkpt lat="46.44603" lon="6.04414">
        <ele>1212.5</ele>
        <time>2012-08-16T16:38:33.000Z</time>
      </trkpt>
      <trkpt lat="46.44597" lon="6.04414">
        <ele>1215.6</ele>
        <time>2012-08-16T16:38:36.000Z</time>
      </trkpt>
      <trkpt lat="46.44592" lon="6.04415">
        <ele>1215.4</ele>
        <time>2012-08-16T16:38:38.000Z</time>
      </trkpt>
      <trkpt lat="46.44587" lon="6.04416">
        <ele>1215.8</ele>
        <time>2012-08-16T16:38:40.000Z</time>
      </trkpt>
      <trkpt lat="46.44581" lon="6.04413">
        <ele>1215.1</ele>
        <time>2012-08-16T16:38:43.000Z</time>
      </trkpt>
      <trkpt lat="46.44576" lon="6.04411">
        <ele>1213.1</ele>
        <time>2012-08-16T16:38:46.000Z</time>
      </trkpt>
      <trkpt lat="46.44571" lon="6.0441">
        <ele>1210.8</ele>
        <time>2012-08-16T16:38:48.000Z</time>
      </trkpt>
      <trkpt lat="46.44566" lon="6.0441">
        <ele>1208.4</ele>
        <time>2012-08-16T16:38:51.000Z</time>
      </trkpt>
      <trkpt lat="46.44561" lon="6.04413">
        <ele>1209.1</ele>
        <time>2012-08-16T16:38:55.000Z</time>
      </trkpt>
      <trkpt lat="46.44556" lon="6.04419">
        <ele>1209.7</ele>
        <time>2012-08-16T16:39:01.000Z</time>
      </trkpt>
      <trkpt lat="46.4455" lon="6.0442">
        <ele>1212.2</ele>
        <time>2012-08-16T16:39:05.000Z</time>
      </trkpt>
      <trkpt lat="46.44544" lon="6.04421">
        <ele>1214.4</ele>
        <time>2012-08-16T16:39:07.000Z</time>
      </trkpt>
      <trkpt lat="46.44538" lon="6.04423">
        <ele>1216.6</ele>
        <time>2012-08-16T16:39:09.000Z</time>
      </trkpt>
      <trkpt lat="46.44531" lon="6.04425">
        <ele>1216.8</ele>
        <time>2012-08-16T16:39:11.000Z</time>
      </trkpt>
      <trkpt lat="46.44526" lon="6.04429">
        <ele>1223.5</ele>
        <time>2012-08-16T16:39:14.000Z</time>
      </trkpt>
      <trkpt lat="46.44522" lon="6.04437">
        <ele>1219.8</ele>
        <time>2012-08-16T16:39:18.000Z</time>
      </trkpt>
      <trkpt lat="46.44518" lon="6.04442">
        <ele>1219.2</ele>
        <time>2012-08-16T16:39:21.000Z</time>
      </trkpt>
      <trkpt lat="46.44513" lon="6.04445">
        <ele>1219.3</ele>
        <time>2012-08-16T16:39:24.000Z</time>
      </trkpt>
      <trkpt lat="46.44508" lon="6.04448">
        <ele>1220.6</ele>
        <time>2012-08-16T16:39:27.000Z</time>
      </trkpt>
      <trkpt lat="46.44504" lon="6.04448">
        <ele>1222.8</ele>
        <time>2012-08-16T16:39:31.000Z</time>
      </trkpt>
      <trkpt lat="46.44502" lon="6.04457">
        <ele>1222.1</ele>
        <time>2012-08-16T16:39:37.000Z</time>
      </trkpt>
      <trkpt lat="46.44499" lon="6.04464">
        <ele>1221.7</ele>
        <time>2012-08-16T16:39:40.000Z</time>
      </trkpt>
      <trkpt lat="46.44493" lon="6.04466">
        <ele>1221.5</ele>
        <time>2012-08-16T16:39:43.000Z</time>
      </trkpt>
      <trkpt lat="46.44488" lon="6.04467">
        <ele>1223.5</ele>
        <time>2012-08-16T16:39:47.000Z</time>
      </trkpt>
      <trkpt lat="46.44482" lon="6.04469">
        <ele>1226</ele>
        <time>2012-08-16T16:39:51.000Z</time>
      </trkpt>
      <trkpt lat="46.44478" lon="6.04471">
        <ele>1226.9</ele>
        <time>2012-08-16T16:39:53.000Z</time>
      </trkpt>
      <trkpt lat="46.44473" lon="6.04474">
        <ele>1227</ele>
        <time>2012-08-16T16:39:55.000Z</time>
      </trkpt>
      <trkpt lat="46.44468" lon="6.04476">
        <ele>1226</ele>
        <time>2012-08-16T16:39:57.000Z</time>
      </trkpt>
      <trkpt lat="46.44461" lon="6.0448">
        <ele>1227.2</ele>
        <time>2012-08-16T16:40:01.000Z</time>
      </trkpt>
      <trkpt lat="46.44456" lon="6.04483">
        <ele>1227.3</ele>
        <time>2012-08-16T16:40:04.000Z</time>
      </trkpt>
      <trkpt lat="46.44452" lon="6.04486">
        <ele>1231.2</ele>
        <time>2012-08-16T16:40:07.000Z</time>
      </trkpt>
      <trkpt lat="46.44445" lon="6.04487">
        <ele>1227.1</ele>
        <time>2012-08-16T16:40:10.000Z</time>
      </trkpt>
      <trkpt lat="46.44438" lon="6.04487">
        <ele>1226.1</ele>
        <time>2012-08-16T16:40:18.000Z</time>
      </trkpt>
      <trkpt lat="46.44433" lon="6.0449">
        <ele>1226.7</ele>
        <time>2012-08-16T16:40:21.000Z</time>
      </trkpt>
      <trkpt lat="46.44428" lon="6.04492">
        <ele>1224.2</ele>
        <time>2012-08-16T16:40:24.000Z</time>
      </trkpt>
      <trkpt lat="46.44423" lon="6.04494">
        <ele>1224.1</ele>
        <time>2012-08-16T16:40:27.000Z</time>
      </trkpt>
      <trkpt lat="46.44418" lon="6.04495">
        <ele>1223.6</ele>
        <time>2012-08-16T16:40:30.000Z</time>
      </trkpt>
      <trkpt lat="46.44413" lon="6.04497">
        <ele>1221.9</ele>
        <time>2012-08-16T16:40:33.000Z</time>
      </trkpt>
      <trkpt lat="46.44408" lon="6.04499">
        <ele>1223.6</ele>
        <time>2012-08-16T16:40:36.000Z</time>
      </trkpt>
      <trkpt lat="46.44403" lon="6.04502">
        <ele>1226.3</ele>
        <time>2012-08-16T16:40:41.000Z</time>
      </trkpt>
      <trkpt lat="46.44398" lon="6.04504">
        <ele>1227.1</ele>
        <time>2012-08-16T16:40:44.000Z</time>
      </trkpt>
      <trkpt lat="46.44394" lon="6.04506">
        <ele>1227.8</ele>
        <time>2012-08-16T16:40:47.000Z</time>
      </trkpt>
      <trkpt lat="46.44389" lon="6.04509">
        <ele>1230</ele>
        <time>2012-08-16T16:40:50.000Z</time>
      </trkpt>
      <trkpt lat="46.44384" lon="6.04511">
        <ele>1230.3</ele>
        <time>2012-08-16T16:40:53.000Z</time>
      </trkpt>
      <trkpt lat="46.4438" lon="6.04515">
        <ele>1234.1</ele>
        <time>2012-08-16T16:40:56.000Z</time>
      </trkpt>
      <trkpt lat="46.44375" lon="6.04522">
        <ele>1237.1</ele>
        <time>2012-08-16T16:41:01.000Z</time>
      </trkpt>
      <trkpt lat="46.44372" lon="6.04528">
        <ele>1237.5</ele>
        <time>2012-08-16T16:41:04.000Z</time>
      </trkpt>
      <trkpt lat="46.44368" lon="6.04532">
        <ele>1239.9</ele>
        <time>2012-08-16T16:41:07.000Z</time>
      </trkpt>
      <trkpt lat="46.44364" lon="6.04536">
        <ele>1242.2</ele>
        <time>2012-08-16T16:41:11.000Z</time>
      </trkpt>
      <trkpt lat="46.44359" lon="6.04538">
        <ele>1244.9</ele>
        <time>2012-08-16T16:41:15.000Z</time>
      </trkpt>
      <trkpt lat="46.44355" lon="6.04545">
        <ele>1245.3</ele>
        <time>2012-08-16T16:41:19.000Z</time>
      </trkpt>
      <trkpt lat="46.44355" lon="6.04551">
        <ele>1245.6</ele>
        <time>2012-08-16T16:41:21.000Z</time>
      </trkpt>
      <trkpt lat="46.44354" lon="6.0456">
        <ele>1245.4</ele>
        <time>2012-08-16T16:41:24.000Z</time>
      </trkpt>
      <trkpt lat="46.44351" lon="6.04566">
        <ele>1245.2</ele>
        <time>2012-08-16T16:41:27.000Z</time>
      </trkpt>
      <trkpt lat="46.44346" lon="6.04568">
        <ele>1240.8</ele>
        <time>2012-08-16T16:41:30.000Z</time>
      </trkpt>
      <trkpt lat="46.4434" lon="6.04568">
        <ele>1240.4</ele>
        <time>2012-08-16T16:41:33.000Z</time>
      </trkpt>
      <trkpt lat="46.44335" lon="6.04569">
        <ele>1241</ele>
        <time>2012-08-16T16:41:36.000Z</time>
      </trkpt>
      <trkpt lat="46.4433" lon="6.04572">
        <ele>1240.9</ele>
        <time>2012-08-16T16:41:39.000Z</time>
      </trkpt>
      <trkpt lat="46.44324" lon="6.04571">
        <ele>1243.2</ele>
        <time>2012-08-16T16:41:43.000Z</time>
      </trkpt>
      <trkpt lat="46.44319" lon="6.04571">
        <ele>1243.5</ele>
        <time>2012-08-16T16:41:46.000Z</time>
      </trkpt>
      <trkpt lat="46.44312" lon="6.04572">
        <ele>1243.3</ele>
        <time>2012-08-16T16:41:49.000Z</time>
      </trkpt>
      <trkpt lat="46.44308" lon="6.04574">
        <ele>1244</ele>
        <time>2012-08-16T16:41:51.000Z</time>
      </trkpt>
      <trkpt lat="46.44303" lon="6.04575">
        <ele>1242.5</ele>
        <time>2012-08-16T16:41:53.000Z</time>
      </trkpt>
      <trkpt lat="46.44299" lon="6.04576">
        <ele>1243.6</ele>
        <time>2012-08-16T16:41:55.000Z</time>
      </trkpt>
      <trkpt lat="46.44294" lon="6.04576">
        <ele>1243.8</ele>
        <time>2012-08-16T16:41:57.000Z</time>
      </trkpt>
      <trkpt lat="46.44287" lon="6.04577">
        <ele>1244.7</ele>
        <time>2012-08-16T16:42:00.000Z</time>
      </trkpt>
      <trkpt lat="46.44281" lon="6.0458">
        <ele>1246.2</ele>
        <time>2012-08-16T16:42:03.000Z</time>
      </trkpt>
      <trkpt lat="46.44276" lon="6.04586">
        <ele>1247.2</ele>
        <time>2012-08-16T16:42:06.000Z</time>
      </trkpt>
      <trkpt lat="46.44273" lon="6.0459">
        <ele>1248.3</ele>
        <time>2012-08-16T16:42:09.000Z</time>
      </trkpt>
      <trkpt lat="46.44268" lon="6.04594">
        <ele>1248.9</ele>
        <time>2012-08-16T16:42:12.000Z</time>
      </trkpt>
      <trkpt lat="46.44264" lon="6.04598">
        <ele>1249.8</ele>
        <time>2012-08-16T16:42:15.000Z</time>
      </trkpt>
      <trkpt lat="46.4426" lon="6.04602">
        <ele>1250.8</ele>
        <time>2012-08-16T16:42:18.000Z</time>
      </trkpt>
      <trkpt lat="46.44255" lon="6.04599">
        <ele>1250.8</ele>
        <time>2012-08-16T16:42:25.000Z</time>
      </trkpt>
      <trkpt lat="46.4425" lon="6.046">
        <ele>1251.1</ele>
        <time>2012-08-16T16:42:30.000Z</time>
      </trkpt>
      <trkpt lat="46.44244" lon="6.04603">
        <ele>1249.5</ele>
        <time>2012-08-16T16:42:34.000Z</time>
      </trkpt>
      <trkpt lat="46.44238" lon="6.04604">
        <ele>1249.1</ele>
        <time>2012-08-16T16:42:36.000Z</time>
      </trkpt>
      <trkpt lat="46.44233" lon="6.04603">
        <ele>1249.4</ele>
        <time>2012-08-16T16:42:38.000Z</time>
      </trkpt>
      <trkpt lat="46.44228" lon="6.04605">
        <ele>1250.2</ele>
        <time>2012-08-16T16:42:42.000Z</time>
      </trkpt>
      <trkpt lat="46.44224" lon="6.04608">
        <ele>1249.2</ele>
        <time>2012-08-16T16:42:47.000Z</time>
      </trkpt>
      <trkpt lat="46.44218" lon="6.04606">
        <ele>1250.4</ele>
        <time>2012-08-16T16:42:49.000Z</time>
      </trkpt>
      <trkpt lat="46.4421" lon="6.04604">
        <ele>1249.9</ele>
        <time>2012-08-16T16:42:51.000Z</time>
      </trkpt>
      <trkpt lat="46.44203" lon="6.04601">
        <ele>1250.2</ele>
        <time>2012-08-16T16:42:53.000Z</time>
      </trkpt>
      <trkpt lat="46.44197" lon="6.046">
        <ele>1250.5</ele>
        <time>2012-08-16T16:42:55.000Z</time>
      </trkpt>
      <trkpt lat="46.44192" lon="6.046">
        <ele>1250.9</ele>
        <time>2012-08-16T16:42:57.000Z</time>
      </trkpt>
      <trkpt lat="46.44192" lon="6.04607">
        <ele>1251.7</ele>
        <time>2012-08-16T16:43:01.000Z</time>
      </trkpt>
      <trkpt lat="46.44187" lon="6.04606">
        <ele>1259.8</ele>
        <time>2012-08-16T16:43:49.000Z</time>
      </trkpt>
      <trkpt lat="46.44164" lon="6.04597">
        <ele>1262</ele>
        <time>2012-08-16T16:43:51.000Z</time>
      </trkpt>
      <trkpt lat="46.44158" lon="6.04596">
        <ele>1277</ele>
        <time>2012-08-16T16:43:56.000Z</time>
      </trkpt>
      <trkpt lat="46.44152" lon="6.04596">
        <ele>1280.1</ele>
        <time>2012-08-16T16:43:59.000Z</time>
      </trkpt>
      <trkpt lat="46.44147" lon="6.04599">
        <ele>1281.1</ele>
        <time>2012-08-16T16:44:02.000Z</time>
      </trkpt>
      <trkpt lat="46.44142" lon="6.04601">
        <ele>1282.1</ele>
        <time>2012-08-16T16:44:05.000Z</time>
      </trkpt>
      <trkpt lat="46.44137" lon="6.04603">
        <ele>1283.3</ele>
        <time>2012-08-16T16:44:08.000Z</time>
      </trkpt>
      <trkpt lat="46.44131" lon="6.04604">
        <ele>1284.8</ele>
        <time>2012-08-16T16:44:11.000Z</time>
      </trkpt>
      <trkpt lat="46.44127" lon="6.04605">
        <ele>1285</ele>
        <time>2012-08-16T16:44:13.000Z</time>
      </trkpt>
      <trkpt lat="46.44121" lon="6.04607">
        <ele>1284.1</ele>
        <time>2012-08-16T16:44:16.000Z</time>
      </trkpt>
      <trkpt lat="46.44118" lon="6.04612">
        <ele>1286.8</ele>
        <time>2012-08-16T16:44:22.000Z</time>
      </trkpt>
      <trkpt lat="46.4412" lon="6.0462">
        <ele>1291</ele>
        <time>2012-08-16T16:44:30.000Z</time>
      </trkpt>
      <trkpt lat="46.4412" lon="6.04628">
        <ele>1296.3</ele>
        <time>2012-08-16T16:44:34.000Z</time>
      </trkpt>
      <trkpt lat="46.44121" lon="6.04636">
        <ele>1297.3</ele>
        <time>2012-08-16T16:44:37.000Z</time>
      </trkpt>
      <trkpt lat="46.44122" lon="6.04643">
        <ele>1297</ele>
        <time>2012-08-16T16:44:41.000Z</time>
      </trkpt>
      <trkpt lat="46.44125" lon="6.04648">
        <ele>1297.2</ele>
        <time>2012-08-16T16:44:45.000Z</time>
      </trkpt>
      <trkpt lat="46.44125" lon="6.04656">
        <ele>1296.3</ele>
        <time>2012-08-16T16:44:50.000Z</time>
      </trkpt>
      <trkpt lat="46.44124" lon="6.04663">
        <ele>1298.9</ele>
        <time>2012-08-16T16:44:53.000Z</time>
      </trkpt>
      <trkpt lat="46.4412" lon="6.0467">
        <ele>1298.1</ele>
        <time>2012-08-16T16:44:57.000Z</time>
      </trkpt>
      <trkpt lat="46.4412" lon="6.04682">
        <ele>1295.7</ele>
        <time>2012-08-16T16:45:01.000Z</time>
      </trkpt>
      <trkpt lat="46.44122" lon="6.0469">
        <ele>1293.9</ele>
        <time>2012-08-16T16:45:03.000Z</time>
      </trkpt>
      <trkpt lat="46.44122" lon="6.04698">
        <ele>1293</ele>
        <time>2012-08-16T16:45:06.000Z</time>
      </trkpt>
      <trkpt lat="46.44118" lon="6.04702">
        <ele>1292.2</ele>
        <time>2012-08-16T16:45:11.000Z</time>
      </trkpt>
      <trkpt lat="46.44113" lon="6.04702">
        <ele>1294.7</ele>
        <time>2012-08-16T16:45:28.000Z</time>
      </trkpt>
      <trkpt lat="46.44107" lon="6.04699">
        <ele>1295.4</ele>
        <time>2012-08-16T16:45:32.000Z</time>
      </trkpt>
      <trkpt lat="46.44101" lon="6.04696">
        <ele>1296</ele>
        <time>2012-08-16T16:45:35.000Z</time>
      </trkpt>
      <trkpt lat="46.44096" lon="6.04694">
        <ele>1298</ele>
        <time>2012-08-16T16:45:38.000Z</time>
      </trkpt>
      <trkpt lat="46.44091" lon="6.04692">
        <ele>1297</ele>
        <time>2012-08-16T16:45:41.000Z</time>
      </trkpt>
      <trkpt lat="46.44086" lon="6.04692">
        <ele>1296.4</ele>
        <time>2012-08-16T16:45:47.000Z</time>
      </trkpt>
      <trkpt lat="46.44081" lon="6.04691">
        <ele>1296.4</ele>
        <time>2012-08-16T16:45:54.000Z</time>
      </trkpt>
      <trkpt lat="46.44074" lon="6.04687">
        <ele>1298.3</ele>
        <time>2012-08-16T16:46:02.000Z</time>
      </trkpt>
      <trkpt lat="46.44068" lon="6.04684">
        <ele>1297.4</ele>
        <time>2012-08-16T16:46:04.000Z</time>
      </trkpt>
      <trkpt lat="46.44062" lon="6.0468">
        <ele>1299.5</ele>
        <time>2012-08-16T16:46:06.000Z</time>
      </trkpt>
      <trkpt lat="46.44055" lon="6.04675">
        <ele>1302.1</ele>
        <time>2012-08-16T16:46:08.000Z</time>
      </trkpt>
      <trkpt lat="46.44049" lon="6.0467">
        <ele>1303</ele>
        <time>2012-08-16T16:46:10.000Z</time>
      </trkpt>
      <trkpt lat="46.44044" lon="6.04665">
        <ele>1304</ele>
        <time>2012-08-16T16:46:12.000Z</time>
      </trkpt>
      <trkpt lat="46.44039" lon="6.0466">
        <ele>1305.9</ele>
        <time>2012-08-16T16:46:15.000Z</time>
      </trkpt>
      <trkpt lat="46.44034" lon="6.04655">
        <ele>1308.3</ele>
        <time>2012-08-16T16:46:18.000Z</time>
      </trkpt>
      <trkpt lat="46.44011" lon="6.04646">
        <ele>1309.8</ele>
        <time>2012-08-16T16:46:20.000Z</time>
      </trkpt>
      <trkpt lat="46.44004" lon="6.04646">
        <ele>1311.2</ele>
        <time>2012-08-16T16:46:22.000Z</time>
      </trkpt>
      <trkpt lat="46.43999" lon="6.04644">
        <ele>1312.8</ele>
        <time>2012-08-16T16:46:25.000Z</time>
      </trkpt>
      <trkpt lat="46.43998" lon="6.04637">
        <ele>1316.1</ele>
        <time>2012-08-16T16:46:35.000Z</time>
      </trkpt>
      <trkpt lat="46.43993" lon="6.0463">
        <ele>1317.5</ele>
        <time>2012-08-16T16:46:40.000Z</time>
      </trkpt>
      <trkpt lat="46.43986" lon="6.04625">
        <ele>1318</ele>
        <time>2012-08-16T16:46:42.000Z</time>
      </trkpt>
      <trkpt lat="46.4398" lon="6.04622">
        <ele>1317.8</ele>
        <time>2012-08-16T16:46:43.000Z</time>
      </trkpt>
      <trkpt lat="46.43975" lon="6.0462">
        <ele>1318.2</ele>
        <time>2012-08-16T16:46:46.000Z</time>
      </trkpt>
      <trkpt lat="46.43974" lon="6.04614">
        <ele>1318.6</ele>
        <time>2012-08-16T16:47:05.000Z</time>
      </trkpt>
      <trkpt lat="46.43972" lon="6.04606">
        <ele>1318.1</ele>
        <time>2012-08-16T16:47:08.000Z</time>
      </trkpt>
      <trkpt lat="46.43969" lon="6.046">
        <ele>1319.1</ele>
        <time>2012-08-16T16:47:11.000Z</time>
      </trkpt>
      <trkpt lat="46.43965" lon="6.04594">
        <ele>1321</ele>
        <time>2012-08-16T16:47:14.000Z</time>
      </trkpt>
      <trkpt lat="46.43961" lon="6.04589">
        <ele>1322.6</ele>
        <time>2012-08-16T16:47:16.000Z</time>
      </trkpt>
      <trkpt lat="46.43956" lon="6.04584">
        <ele>1322.3</ele>
        <time>2012-08-16T16:47:19.000Z</time>
      </trkpt>
      <trkpt lat="46.4395" lon="6.04584">
        <ele>1320.1</ele>
        <time>2012-08-16T16:47:22.000Z</time>
      </trkpt>
      <trkpt lat="46.43945" lon="6.04584">
        <ele>1318.7</ele>
        <time>2012-08-16T16:47:25.000Z</time>
      </trkpt>
      <trkpt lat="46.4394" lon="6.04585">
        <ele>1321.4</ele>
        <time>2012-08-16T16:47:28.000Z</time>
      </trkpt>
      <trkpt lat="46.43935" lon="6.04586">
        <ele>1322.3</ele>
        <time>2012-08-16T16:47:31.000Z</time>
      </trkpt>
      <trkpt lat="46.43931" lon="6.0459">
        <ele>1320.2</ele>
        <time>2012-08-16T16:47:34.000Z</time>
      </trkpt>
      <trkpt lat="46.43928" lon="6.04596">
        <ele>1319.3</ele>
        <time>2012-08-16T16:47:42.000Z</time>
      </trkpt>
      <trkpt lat="46.43924" lon="6.04601">
        <ele>1317</ele>
        <time>2012-08-16T16:47:49.000Z</time>
      </trkpt>
      <trkpt lat="46.43923" lon="6.04607">
        <ele>1315.8</ele>
        <time>2012-08-16T16:48:51.000Z</time>
      </trkpt>
      <trkpt lat="46.43918" lon="6.04613">
        <ele>1315.5</ele>
        <time>2012-08-16T16:48:55.000Z</time>
      </trkpt>
      <trkpt lat="46.43913" lon="6.04616">
        <ele>1315.6</ele>
        <time>2012-08-16T16:48:58.000Z</time>
      </trkpt>
      <trkpt lat="46.43907" lon="6.04619">
        <ele>1315.5</ele>
        <time>2012-08-16T16:49:00.000Z</time>
      </trkpt>
      <trkpt lat="46.43905" lon="6.04624">
        <ele>1314.2</ele>
        <time>2012-08-16T16:49:04.000Z</time>
      </trkpt>
      <trkpt lat="46.43904" lon="6.04631">
        <ele>1315.4</ele>
        <time>2012-08-16T16:49:07.000Z</time>
      </trkpt>
      <trkpt lat="46.43903" lon="6.04638">
        <ele>1315.9</ele>
        <time>2012-08-16T16:49:11.000Z</time>
      </trkpt>
      <trkpt lat="46.43905" lon="6.04648">
        <ele>1316.2</ele>
        <time>2012-08-16T16:49:14.000Z</time>
      </trkpt>
      <trkpt lat="46.43907" lon="6.04654">
        <ele>1316.6</ele>
        <time>2012-08-16T16:49:16.000Z</time>
      </trkpt>
      <trkpt lat="46.4391" lon="6.0466">
        <ele>1316.2</ele>
        <time>2012-08-16T16:49:19.000Z</time>
      </trkpt>
      <trkpt lat="46.43912" lon="6.04668">
        <ele>1314.6</ele>
        <time>2012-08-16T16:49:25.000Z</time>
      </trkpt>
      <trkpt lat="46.43914" lon="6.04676">
        <ele>1310</ele>
        <time>2012-08-16T16:49:27.000Z</time>
      </trkpt>
      <trkpt lat="46.43914" lon="6.04685">
        <ele>1306.4</ele>
        <time>2012-08-16T16:49:30.000Z</time>
      </trkpt>
      <trkpt lat="46.43913" lon="6.04692">
        <ele>1306.7</ele>
        <time>2012-08-16T16:49:33.000Z</time>
      </trkpt>
      <trkpt lat="46.4391" lon="6.04698">
        <ele>1308.2</ele>
        <time>2012-08-16T16:49:35.000Z</time>
      </trkpt>
      <trkpt lat="46.43908" lon="6.04704">
        <ele>1308.3</ele>
        <time>2012-08-16T16:49:37.000Z</time>
      </trkpt>
      <trkpt lat="46.43906" lon="6.04712">
        <ele>1308</ele>
        <time>2012-08-16T16:49:40.000Z</time>
      </trkpt>
      <trkpt lat="46.43908" lon="6.0472">
        <ele>1308.1</ele>
        <time>2012-08-16T16:49:43.000Z</time>
      </trkpt>
      <trkpt lat="46.43911" lon="6.04726">
        <ele>1306.8</ele>
        <time>2012-08-16T16:49:45.000Z</time>
      </trkpt>
      <trkpt lat="46.43913" lon="6.04733">
        <ele>1307</ele>
        <time>2012-08-16T16:49:48.000Z</time>
      </trkpt>
      <trkpt lat="46.43917" lon="6.04742">
        <ele>1305</ele>
        <time>2012-08-16T16:49:52.000Z</time>
      </trkpt>
      <trkpt lat="46.4392" lon="6.04748">
        <ele>1304</ele>
        <time>2012-08-16T16:49:57.000Z</time>
      </trkpt>
      <trkpt lat="46.4392" lon="6.04748">
        <ele>1304</ele>
        <time>2012-08-16T16:49:57.000Z</time>
      </trkpt>
      <trkpt lat="46.4392" lon="6.04748">
        <ele>1304</ele>
        <time>2012-08-16T16:49:58.000Z</time>
      </trkpt>
      <trkpt lat="46.43923" lon="6.04754">
        <ele>1305.2</ele>
        <time>2012-08-16T16:50:06.000Z</time>
      </trkpt>
      <trkpt lat="46.43925" lon="6.0476">
        <ele>1307.5</ele>
        <time>2012-08-16T16:50:09.000Z</time>
      </trkpt>
      <trkpt lat="46.43926" lon="6.04766">
        <ele>1309.6</ele>
        <time>2012-08-16T16:50:12.000Z</time>
      </trkpt>
      <trkpt lat="46.43927" lon="6.04775">
        <ele>1313.8</ele>
        <time>2012-08-16T16:50:16.000Z</time>
      </trkpt>
      <trkpt lat="46.43926" lon="6.04781">
        <ele>1315.6</ele>
        <time>2012-08-16T16:50:19.000Z</time>
      </trkpt>
      <trkpt lat="46.43924" lon="6.04789">
        <ele>1313.4</ele>
        <time>2012-08-16T16:50:21.000Z</time>
      </trkpt>
      <trkpt lat="46.43922" lon="6.04795">
        <ele>1313.7</ele>
        <time>2012-08-16T16:50:23.000Z</time>
      </trkpt>
      <trkpt lat="46.43919" lon="6.048">
        <ele>1313</ele>
        <time>2012-08-16T16:50:26.000Z</time>
      </trkpt>
      <trkpt lat="46.43917" lon="6.04808">
        <ele>1311.4</ele>
        <time>2012-08-16T16:50:30.000Z</time>
      </trkpt>
      <trkpt lat="46.43915" lon="6.04817">
        <ele>1308.4</ele>
        <time>2012-08-16T16:50:33.000Z</time>
      </trkpt>
      <trkpt lat="46.43914" lon="6.04824">
        <ele>1308.2</ele>
        <time>2012-08-16T16:50:35.000Z</time>
      </trkpt>
      <trkpt lat="46.43913" lon="6.04834">
        <ele>1307.3</ele>
        <time>2012-08-16T16:50:38.000Z</time>
      </trkpt>
      <trkpt lat="46.43913" lon="6.04844">
        <ele>1306.5</ele>
        <time>2012-08-16T16:50:40.000Z</time>
      </trkpt>
      <trkpt lat="46.43915" lon="6.04851">
        <ele>1310.8</ele>
        <time>2012-08-16T16:50:42.000Z</time>
      </trkpt>
      <trkpt lat="46.43918" lon="6.04862">
        <ele>1308.2</ele>
        <time>2012-08-16T16:50:44.000Z</time>
      </trkpt>
      <trkpt lat="46.4392" lon="6.04873">
        <ele>1307.5</ele>
        <time>2012-08-16T16:50:46.000Z</time>
      </trkpt>
      <trkpt lat="46.43921" lon="6.0488">
        <ele>1306</ele>
        <time>2012-08-16T16:50:48.000Z</time>
      </trkpt>
      <trkpt lat="46.43922" lon="6.04888">
        <ele>1305.6</ele>
        <time>2012-08-16T16:50:50.000Z</time>
      </trkpt>
      <trkpt lat="46.43922" lon="6.04896">
        <ele>1308.7</ele>
        <time>2012-08-16T16:50:53.000Z</time>
      </trkpt>
      <trkpt lat="46.43923" lon="6.04903">
        <ele>1308.7</ele>
        <time>2012-08-16T16:50:56.000Z</time>
      </trkpt>
      <trkpt lat="46.43925" lon="6.0491">
        <ele>1310.5</ele>
        <time>2012-08-16T16:50:58.000Z</time>
      </trkpt>
      <trkpt lat="46.43928" lon="6.04917">
        <ele>1308.9</ele>
        <time>2012-08-16T16:51:00.000Z</time>
      </trkpt>
      <trkpt lat="46.43928" lon="6.04924">
        <ele>1305.2</ele>
        <time>2012-08-16T16:51:02.000Z</time>
      </trkpt>
      <trkpt lat="46.43931" lon="6.04932">
        <ele>1305.9</ele>
        <time>2012-08-16T16:51:04.000Z</time>
      </trkpt>
      <trkpt lat="46.43932" lon="6.04939">
        <ele>1306.2</ele>
        <time>2012-08-16T16:51:06.000Z</time>
      </trkpt>
      <trkpt lat="46.43932" lon="6.04946">
        <ele>1305.3</ele>
        <time>2012-08-16T16:51:08.000Z</time>
      </trkpt>
      <trkpt lat="46.43933" lon="6.04952">
        <ele>1305.8</ele>
        <time>2012-08-16T16:51:10.000Z</time>
      </trkpt>
      <trkpt lat="46.43935" lon="6.04961">
        <ele>1306.7</ele>
        <time>2012-08-16T16:51:13.000Z</time>
      </trkpt>
      <trkpt lat="46.43936" lon="6.04969">
        <ele>1308.1</ele>
        <time>2012-08-16T16:51:17.000Z</time>
      </trkpt>
      <trkpt lat="46.43935" lon="6.04976">
        <ele>1307</ele>
        <time>2012-08-16T16:51:20.000Z</time>
      </trkpt>
      <trkpt lat="46.43934" lon="6.04983">
        <ele>1308.1</ele>
        <time>2012-08-16T16:51:23.000Z</time>
      </trkpt>
      <trkpt lat="46.43934" lon="6.0499">
        <ele>1307.9</ele>
        <time>2012-08-16T16:51:26.000Z</time>
      </trkpt>
      <trkpt lat="46.43935" lon="6.04999">
        <ele>1307.5</ele>
        <time>2012-08-16T16:51:29.000Z</time>
      </trkpt>
      <trkpt lat="46.43936" lon="6.05008">
        <ele>1307.3</ele>
        <time>2012-08-16T16:51:32.000Z</time>
      </trkpt>
      <trkpt lat="46.43938" lon="6.05014">
        <ele>1309.9</ele>
        <time>2012-08-16T16:51:34.000Z</time>
      </trkpt>
      <trkpt lat="46.4394" lon="6.0502">
        <ele>1310</ele>
        <time>2012-08-16T16:51:36.000Z</time>
      </trkpt>
      <trkpt lat="46.43942" lon="6.05027">
        <ele>1310.2</ele>
        <time>2012-08-16T16:51:38.000Z</time>
      </trkpt>
      <trkpt lat="46.43943" lon="6.05035">
        <ele>1310.7</ele>
        <time>2012-08-16T16:51:41.000Z</time>
      </trkpt>
      <trkpt lat="46.43944" lon="6.05042">
        <ele>1310.6</ele>
        <time>2012-08-16T16:51:44.000Z</time>
      </trkpt>
      <trkpt lat="46.43943" lon="6.0505">
        <ele>1308.8</ele>
        <time>2012-08-16T16:51:47.000Z</time>
      </trkpt>
      <trkpt lat="46.43941" lon="6.05057">
        <ele>1309.1</ele>
        <time>2012-08-16T16:51:50.000Z</time>
      </trkpt>
      <trkpt lat="46.43941" lon="6.05067">
        <ele>1308.3</ele>
        <time>2012-08-16T16:51:53.000Z</time>
      </trkpt>
      <trkpt lat="46.43942" lon="6.05075">
        <ele>1310.8</ele>
        <time>2012-08-16T16:51:56.000Z</time>
      </trkpt>
      <trkpt lat="46.43941" lon="6.05082">
        <ele>1312.9</ele>
        <time>2012-08-16T16:51:59.000Z</time>
      </trkpt>
      <trkpt lat="46.43941" lon="6.0509">
        <ele>1319.1</ele>
        <time>2012-08-16T16:52:04.000Z</time>
      </trkpt>
      <trkpt lat="46.4394" lon="6.05097">
        <ele>1318.1</ele>
        <time>2012-08-16T16:52:09.000Z</time>
      </trkpt>
      <trkpt lat="46.43943" lon="6.05103">
        <ele>1321.1</ele>
        <time>2012-08-16T16:52:12.000Z</time>
      </trkpt>
      <trkpt lat="46.43945" lon="6.05109">
        <ele>1320.8</ele>
        <time>2012-08-16T16:52:15.000Z</time>
      </trkpt>
      <trkpt lat="46.43949" lon="6.05115">
        <ele>1320.7</ele>
        <time>2012-08-16T16:52:19.000Z</time>
      </trkpt>
      <trkpt lat="46.43953" lon="6.0512">
        <ele>1324.3</ele>
        <time>2012-08-16T16:52:23.000Z</time>
      </trkpt>
      <trkpt lat="46.43956" lon="6.05125">
        <ele>1327.4</ele>
        <time>2012-08-16T16:52:26.000Z</time>
      </trkpt>
      <trkpt lat="46.4396" lon="6.0513">
        <ele>1334.2</ele>
        <time>2012-08-16T16:52:29.000Z</time>
      </trkpt>
      <trkpt lat="46.43965" lon="6.05132">
        <ele>1332.4</ele>
        <time>2012-08-16T16:52:32.000Z</time>
      </trkpt>
      <trkpt lat="46.43969" lon="6.05135">
        <ele>1332.4</ele>
        <time>2012-08-16T16:52:34.000Z</time>
      </trkpt>
      <trkpt lat="46.43974" lon="6.05139">
        <ele>1332</ele>
        <time>2012-08-16T16:52:36.000Z</time>
      </trkpt>
      <trkpt lat="46.43979" lon="6.05144">
        <ele>1331.9</ele>
        <time>2012-08-16T16:52:38.000Z</time>
      </trkpt>
      <trkpt lat="46.43983" lon="6.0515">
        <ele>1333.7</ele>
        <time>2012-08-16T16:52:40.000Z</time>
      </trkpt>
      <trkpt lat="46.43987" lon="6.05157">
        <ele>1333</ele>
        <time>2012-08-16T16:52:43.000Z</time>
      </trkpt>
      <trkpt lat="46.43991" lon="6.05162">
        <ele>1331.2</ele>
        <time>2012-08-16T16:52:47.000Z</time>
      </trkpt>
      <trkpt lat="46.43995" lon="6.05172">
        <ele>1330.1</ele>
        <time>2012-08-16T16:52:51.000Z</time>
      </trkpt>
      <trkpt lat="46.43999" lon="6.05174">
        <ele>1336.8</ele>
        <time>2012-08-16T16:52:55.000Z</time>
      </trkpt>
      <trkpt lat="46.44004" lon="6.05175">
        <ele>1336.1</ele>
        <time>2012-08-16T16:52:59.000Z</time>
      </trkpt>
      <trkpt lat="46.4401" lon="6.05174">
        <ele>1336.6</ele>
        <time>2012-08-16T16:53:02.000Z</time>
      </trkpt>
      <trkpt lat="46.44014" lon="6.05177">
        <ele>1339.8</ele>
        <time>2012-08-16T16:53:06.000Z</time>
      </trkpt>
      <trkpt lat="46.44018" lon="6.05182">
        <ele>1337.4</ele>
        <time>2012-08-16T16:53:09.000Z</time>
      </trkpt>
      <trkpt lat="46.44023" lon="6.05183">
        <ele>1333</ele>
        <time>2012-08-16T16:53:14.000Z</time>
      </trkpt>
      <trkpt lat="46.44028" lon="6.05183">
        <ele>1337.1</ele>
        <time>2012-08-16T16:53:19.000Z</time>
      </trkpt>
      <trkpt lat="46.44032" lon="6.05179">
        <ele>1336.1</ele>
        <time>2012-08-16T16:53:23.000Z</time>
      </trkpt>
      <trkpt lat="46.44036" lon="6.05171">
        <ele>1331.6</ele>
        <time>2012-08-16T16:53:27.000Z</time>
      </trkpt>
      <trkpt lat="46.4404" lon="6.05165">
        <ele>1331.6</ele>
        <time>2012-08-16T16:53:30.000Z</time>
      </trkpt>
      <trkpt lat="46.44046" lon="6.05163">
        <ele>1337.9</ele>
        <time>2012-08-16T16:53:32.000Z</time>
      </trkpt>
      <trkpt lat="46.44052" lon="6.05161">
        <ele>1337.8</ele>
        <time>2012-08-16T16:53:34.000Z</time>
      </trkpt>
      <trkpt lat="46.44056" lon="6.05157">
        <ele>1340.3</ele>
        <time>2012-08-16T16:53:36.000Z</time>
      </trkpt>
      <trkpt lat="46.4406" lon="6.05152">
        <ele>1341.1</ele>
        <time>2012-08-16T16:53:38.000Z</time>
      </trkpt>
      <trkpt lat="46.44064" lon="6.05148">
        <ele>1338.4</ele>
        <time>2012-08-16T16:53:40.000Z</time>
      </trkpt>
      <trkpt lat="46.44069" lon="6.05143">
        <ele>1339.5</ele>
        <time>2012-08-16T16:53:43.000Z</time>
      </trkpt>
      <trkpt lat="46.44076" lon="6.05139">
        <ele>1339.9</ele>
        <time>2012-08-16T16:53:46.000Z</time>
      </trkpt>
      <trkpt lat="46.44084" lon="6.05139">
        <ele>1339.5</ele>
        <time>2012-08-16T16:53:48.000Z</time>
      </trkpt>
      <trkpt lat="46.4409" lon="6.05137">
        <ele>1340.2</ele>
        <time>2012-08-16T16:53:50.000Z</time>
      </trkpt>
      <trkpt lat="46.44095" lon="6.05135">
        <ele>1339.3</ele>
        <time>2012-08-16T16:53:52.000Z</time>
      </trkpt>
      <trkpt lat="46.441" lon="6.05132">
        <ele>1339.1</ele>
        <time>2012-08-16T16:53:54.000Z</time>
      </trkpt>
      <trkpt lat="46.44106" lon="6.05126">
        <ele>1339.5</ele>
        <time>2012-08-16T16:53:56.000Z</time>
      </trkpt>
      <trkpt lat="46.4411" lon="6.05123">
        <ele>1338.1</ele>
        <time>2012-08-16T16:53:58.000Z</time>
      </trkpt>
      <trkpt lat="46.44117" lon="6.05122">
        <ele>1333.6</ele>
        <time>2012-08-16T16:54:01.000Z</time>
      </trkpt>
      <trkpt lat="46.44123" lon="6.05124">
        <ele>1327.3</ele>
        <time>2012-08-16T16:54:04.000Z</time>
      </trkpt>
      <trkpt lat="46.44128" lon="6.05125">
        <ele>1322</ele>
        <time>2012-08-16T16:54:07.000Z</time>
      </trkpt>
      <trkpt lat="46.44133" lon="6.05127">
        <ele>1320.5</ele>
        <time>2012-08-16T16:54:10.000Z</time>
      </trkpt>
      <trkpt lat="46.44141" lon="6.05128">
        <ele>1312.7</ele>
        <time>2012-08-16T16:54:13.000Z</time>
      </trkpt>
      <trkpt lat="46.44146" lon="6.0513">
        <ele>1310.8</ele>
        <time>2012-08-16T16:54:15.000Z</time>
      </trkpt>
      <trkpt lat="46.4415" lon="6.05132">
        <ele>1310.8</ele>
        <time>2012-08-16T16:54:17.000Z</time>
      </trkpt>
      <trkpt lat="46.44155" lon="6.05136">
        <ele>1310.6</ele>
        <time>2012-08-16T16:54:19.000Z</time>
      </trkpt>
      <trkpt lat="46.4416" lon="6.05139">
        <ele>1310.8</ele>
        <time>2012-08-16T16:54:21.000Z</time>
      </trkpt>
      <trkpt lat="46.44166" lon="6.05142">
        <ele>1312.1</ele>
        <time>2012-08-16T16:54:24.000Z</time>
      </trkpt>
      <trkpt lat="46.44172" lon="6.05144">
        <ele>1308.3</ele>
        <time>2012-08-16T16:54:27.000Z</time>
      </trkpt>
      <trkpt lat="46.44178" lon="6.05146">
        <ele>1307.9</ele>
        <time>2012-08-16T16:54:30.000Z</time>
      </trkpt>
      <trkpt lat="46.44182" lon="6.05149">
        <ele>1307.7</ele>
        <time>2012-08-16T16:54:33.000Z</time>
      </trkpt>
      <trkpt lat="46.44187" lon="6.05151">
        <ele>1308.5</ele>
        <time>2012-08-16T16:54:36.000Z</time>
      </trkpt>
      <trkpt lat="46.44192" lon="6.05155">
        <ele>1310.4</ele>
        <time>2012-08-16T16:54:39.000Z</time>
      </trkpt>
      <trkpt lat="46.44198" lon="6.05158">
        <ele>1310.5</ele>
        <time>2012-08-16T16:54:42.000Z</time>
      </trkpt>
      <trkpt lat="46.44204" lon="6.0516">
        <ele>1311.1</ele>
        <time>2012-08-16T16:54:45.000Z</time>
      </trkpt>
      <trkpt lat="46.4421" lon="6.05163">
        <ele>1311</ele>
        <time>2012-08-16T16:54:49.000Z</time>
      </trkpt>
      <trkpt lat="46.44214" lon="6.05167">
        <ele>1309.5</ele>
        <time>2012-08-16T16:54:52.000Z</time>
      </trkpt>
      <trkpt lat="46.44221" lon="6.05172">
        <ele>1308</ele>
        <time>2012-08-16T16:54:55.000Z</time>
      </trkpt>
      <trkpt lat="46.44225" lon="6.05176">
        <ele>1307.2</ele>
        <time>2012-08-16T16:54:57.000Z</time>
      </trkpt>
      <trkpt lat="46.4423" lon="6.0518">
        <ele>1307</ele>
        <time>2012-08-16T16:54:59.000Z</time>
      </trkpt>
      <trkpt lat="46.44234" lon="6.05185">
        <ele>1307</ele>
        <time>2012-08-16T16:55:01.000Z</time>
      </trkpt>
      <trkpt lat="46.44238" lon="6.0519">
        <ele>1307.2</ele>
        <time>2012-08-16T16:55:03.000Z</time>
      </trkpt>
      <trkpt lat="46.44243" lon="6.05192">
        <ele>1306.1</ele>
        <time>2012-08-16T16:55:06.000Z</time>
      </trkpt>
      <trkpt lat="46.44244" lon="6.05185">
        <ele>1307.5</ele>
        <time>2012-08-16T16:55:11.000Z</time>
      </trkpt>
      <trkpt lat="46.44249" lon="6.05188">
        <ele>1308.3</ele>
        <time>2012-08-16T16:55:42.000Z</time>
      </trkpt>
      <trkpt lat="46.44254" lon="6.05184">
        <ele>1309.9</ele>
        <time>2012-08-16T16:55:44.000Z</time>
      </trkpt>
      <trkpt lat="46.44259" lon="6.05184">
        <ele>1310.7</ele>
        <time>2012-08-16T16:55:46.000Z</time>
      </trkpt>
      <trkpt lat="46.44264" lon="6.05185">
        <ele>1314</ele>
        <time>2012-08-16T16:55:49.000Z</time>
      </trkpt>
      <trkpt lat="46.44269" lon="6.05187">
        <ele>1311.7</ele>
        <time>2012-08-16T16:55:51.000Z</time>
      </trkpt>
      <trkpt lat="46.44273" lon="6.0519">
        <ele>1313.1</ele>
        <time>2012-08-16T16:55:53.000Z</time>
      </trkpt>
      <trkpt lat="46.44279" lon="6.0519">
        <ele>1312.2</ele>
        <time>2012-08-16T16:55:55.000Z</time>
      </trkpt>
      <trkpt lat="46.44285" lon="6.05189">
        <ele>1313.2</ele>
        <time>2012-08-16T16:55:58.000Z</time>
      </trkpt>
      <trkpt lat="46.44289" lon="6.05188">
        <ele>1313.9</ele>
        <time>2012-08-16T16:56:00.000Z</time>
      </trkpt>
      <trkpt lat="46.44295" lon="6.05189">
        <ele>1313.6</ele>
        <time>2012-08-16T16:56:03.000Z</time>
      </trkpt>
      <trkpt lat="46.44301" lon="6.05186">
        <ele>1313.7</ele>
        <time>2012-08-16T16:56:07.000Z</time>
      </trkpt>
      <trkpt lat="46.44307" lon="6.05188">
        <ele>1313.2</ele>
        <time>2012-08-16T16:56:09.000Z</time>
      </trkpt>
      <trkpt lat="46.44312" lon="6.0519">
        <ele>1321</ele>
        <time>2012-08-16T16:56:12.000Z</time>
      </trkpt>
      <trkpt lat="46.44318" lon="6.05192">
        <ele>1323.4</ele>
        <time>2012-08-16T16:56:17.000Z</time>
      </trkpt>
      <trkpt lat="46.44323" lon="6.05195">
        <ele>1326.6</ele>
        <time>2012-08-16T16:56:20.000Z</time>
      </trkpt>
      <trkpt lat="46.44329" lon="6.05198">
        <ele>1322.4</ele>
        <time>2012-08-16T16:56:23.000Z</time>
      </trkpt>
      <trkpt lat="46.44334" lon="6.052">
        <ele>1323.1</ele>
        <time>2012-08-16T16:56:26.000Z</time>
      </trkpt>
      <trkpt lat="46.44338" lon="6.05205">
        <ele>1323.7</ele>
        <time>2012-08-16T16:56:29.000Z</time>
      </trkpt>
      <trkpt lat="46.44343" lon="6.05209">
        <ele>1323.4</ele>
        <time>2012-08-16T16:56:32.000Z</time>
      </trkpt>
      <trkpt lat="46.44348" lon="6.05214">
        <ele>1321.1</ele>
        <time>2012-08-16T16:56:36.000Z</time>
      </trkpt>
      <trkpt lat="46.44351" lon="6.0522">
        <ele>1321.2</ele>
        <time>2012-08-16T16:56:39.000Z</time>
      </trkpt>
      <trkpt lat="46.44354" lon="6.05228">
        <ele>1315.1</ele>
        <time>2012-08-16T16:56:42.000Z</time>
      </trkpt>
      <trkpt lat="46.44357" lon="6.05233">
        <ele>1316.4</ele>
        <time>2012-08-16T16:56:44.000Z</time>
      </trkpt>
      <trkpt lat="46.44361" lon="6.05238">
        <ele>1317.6</ele>
        <time>2012-08-16T16:56:46.000Z</time>
      </trkpt>
      <trkpt lat="46.44364" lon="6.05244">
        <ele>1317.8</ele>
        <time>2012-08-16T16:56:49.000Z</time>
      </trkpt>
      <trkpt lat="46.44368" lon="6.05252">
        <ele>1317.2</ele>
        <time>2012-08-16T16:56:52.000Z</time>
      </trkpt>
      <trkpt lat="46.44373" lon="6.05252">
        <ele>1318.3</ele>
        <time>2012-08-16T16:56:54.000Z</time>
      </trkpt>
      <trkpt lat="46.44378" lon="6.05254">
        <ele>1318.4</ele>
        <time>2012-08-16T16:56:56.000Z</time>
      </trkpt>
      <trkpt lat="46.44383" lon="6.05253">
        <ele>1318.9</ele>
        <time>2012-08-16T16:56:58.000Z</time>
      </trkpt>
      <trkpt lat="46.44389" lon="6.0525">
        <ele>1324.7</ele>
        <time>2012-08-16T16:57:01.000Z</time>
      </trkpt>
      <trkpt lat="46.44396" lon="6.05249">
        <ele>1328.1</ele>
        <time>2012-08-16T16:57:05.000Z</time>
      </trkpt>
      <trkpt lat="46.444" lon="6.05252">
        <ele>1329.6</ele>
        <time>2012-08-16T16:57:08.000Z</time>
      </trkpt>
      <trkpt lat="46.44407" lon="6.05252">
        <ele>1328.8</ele>
        <time>2012-08-16T16:57:12.000Z</time>
      </trkpt>
      <trkpt lat="46.44412" lon="6.05254">
        <ele>1328</ele>
        <time>2012-08-16T16:57:15.000Z</time>
      </trkpt>
      <trkpt lat="46.44424" lon="6.05249">
        <ele>1335.2</ele>
        <time>2012-08-16T16:57:16.000Z</time>
      </trkpt>
      <trkpt lat="46.44419" lon="6.05249">
        <ele>1335.3</ele>
        <time>2012-08-16T16:57:26.000Z</time>
      </trkpt>
      <trkpt lat="46.44419" lon="6.05249">
        <ele>1335.3</ele>
        <time>2012-08-16T16:57:26.000Z</time>
      </trkpt>
      <trkpt lat="46.44419" lon="6.05249">
        <ele>1335.3</ele>
        <time>2012-08-16T16:57:27.000Z</time>
      </trkpt>
      <trkpt lat="46.44426" lon="6.05244">
        <ele>1328</ele>
        <time>2012-08-16T16:57:35.000Z</time>
      </trkpt>
      <trkpt lat="46.4443" lon="6.05239">
        <ele>1325</ele>
        <time>2012-08-16T16:57:40.000Z</time>
      </trkpt>
      <trkpt lat="46.44437" lon="6.05234">
        <ele>1321.6</ele>
        <time>2012-08-16T16:57:44.000Z</time>
      </trkpt>
      <trkpt lat="46.44443" lon="6.0523">
        <ele>1321.1</ele>
        <time>2012-08-16T16:57:46.000Z</time>
      </trkpt>
      <trkpt lat="46.4445" lon="6.05226">
        <ele>1320.5</ele>
        <time>2012-08-16T16:57:48.000Z</time>
      </trkpt>
      <trkpt lat="46.44456" lon="6.05224">
        <ele>1320.2</ele>
        <time>2012-08-16T16:57:50.000Z</time>
      </trkpt>
      <trkpt lat="46.4446" lon="6.05228">
        <ele>1318.4</ele>
        <time>2012-08-16T16:57:56.000Z</time>
      </trkpt>
      <trkpt lat="46.44464" lon="6.05231">
        <ele>1316</ele>
        <time>2012-08-16T16:58:01.000Z</time>
      </trkpt>
      <trkpt lat="46.44471" lon="6.05233">
        <ele>1316.8</ele>
        <time>2012-08-16T16:58:04.000Z</time>
      </trkpt>
      <trkpt lat="46.44476" lon="6.05236">
        <ele>1317.1</ele>
        <time>2012-08-16T16:58:07.000Z</time>
      </trkpt>
      <trkpt lat="46.44482" lon="6.0524">
        <ele>1318.1</ele>
        <time>2012-08-16T16:58:11.000Z</time>
      </trkpt>
      <trkpt lat="46.44487" lon="6.05242">
        <ele>1318.1</ele>
        <time>2012-08-16T16:58:14.000Z</time>
      </trkpt>
      <trkpt lat="46.44493" lon="6.05245">
        <ele>1318.2</ele>
        <time>2012-08-16T16:58:16.000Z</time>
      </trkpt>
      <trkpt lat="46.44498" lon="6.0525">
        <ele>1320.9</ele>
        <time>2012-08-16T16:58:18.000Z</time>
      </trkpt>
      <trkpt lat="46.44503" lon="6.05252">
        <ele>1323.7</ele>
        <time>2012-08-16T16:58:20.000Z</time>
      </trkpt>
      <trkpt lat="46.44508" lon="6.05251">
        <ele>1325.1</ele>
        <time>2012-08-16T16:58:23.000Z</time>
      </trkpt>
      <trkpt lat="46.44512" lon="6.05246">
        <ele>1327.2</ele>
        <time>2012-08-16T16:58:25.000Z</time>
      </trkpt>
      <trkpt lat="46.44516" lon="6.05242">
        <ele>1327.9</ele>
        <time>2012-08-16T16:58:27.000Z</time>
      </trkpt>
      <trkpt lat="46.4452" lon="6.05238">
        <ele>1326.5</ele>
        <time>2012-08-16T16:58:29.000Z</time>
      </trkpt>
      <trkpt lat="46.44525" lon="6.05234">
        <ele>1325.4</ele>
        <time>2012-08-16T16:58:31.000Z</time>
      </trkpt>
      <trkpt lat="46.44531" lon="6.0523">
        <ele>1322.8</ele>
        <time>2012-08-16T16:58:33.000Z</time>
      </trkpt>
      <trkpt lat="46.44536" lon="6.05227">
        <ele>1325.9</ele>
        <time>2012-08-16T16:58:35.000Z</time>
      </trkpt>
      <trkpt lat="46.4454" lon="6.05224">
        <ele>1325.2</ele>
        <time>2012-08-16T16:58:37.000Z</time>
      </trkpt>
      <trkpt lat="46.44545" lon="6.05223">
        <ele>1328.1</ele>
        <time>2012-08-16T16:58:39.000Z</time>
      </trkpt>
      <trkpt lat="46.44551" lon="6.05224">
        <ele>1330.1</ele>
        <time>2012-08-16T16:58:42.000Z</time>
      </trkpt>
      <trkpt lat="46.44556" lon="6.05227">
        <ele>1332.2</ele>
        <time>2012-08-16T16:58:44.000Z</time>
      </trkpt>
      <trkpt lat="46.44562" lon="6.05229">
        <ele>1331.5</ele>
        <time>2012-08-16T16:58:46.000Z</time>
      </trkpt>
      <trkpt lat="46.44571" lon="6.05229">
        <ele>1330.4</ele>
        <time>2012-08-16T16:58:48.000Z</time>
      </trkpt>
      <trkpt lat="46.44579" lon="6.05227">
        <ele>1329.7</ele>
        <time>2012-08-16T16:58:50.000Z</time>
      </trkpt>
      <trkpt lat="46.44586" lon="6.05223">
        <ele>1330.1</ele>
        <time>2012-08-16T16:58:52.000Z</time>
      </trkpt>
      <trkpt lat="46.4459" lon="6.0522">
        <ele>1330.1</ele>
        <time>2012-08-16T16:58:53.000Z</time>
      </trkpt>
      <trkpt lat="46.44595" lon="6.0522">
        <ele>1332.5</ele>
        <time>2012-08-16T16:58:55.000Z</time>
      </trkpt>
      <trkpt lat="46.44601" lon="6.05221">
        <ele>1335.6</ele>
        <time>2012-08-16T16:58:58.000Z</time>
      </trkpt>
      <trkpt lat="46.44606" lon="6.0522">
        <ele>1336.1</ele>
        <time>2012-08-16T16:59:01.000Z</time>
      </trkpt>
      <trkpt lat="46.4461" lon="6.05217">
        <ele>1332</ele>
        <time>2012-08-16T16:59:03.000Z</time>
      </trkpt>
      <trkpt lat="46.44617" lon="6.05214">
        <ele>1330.1</ele>
        <time>2012-08-16T16:59:05.000Z</time>
      </trkpt>
      <trkpt lat="46.44621" lon="6.05209">
        <ele>1325.5</ele>
        <time>2012-08-16T16:59:07.000Z</time>
      </trkpt>
      <trkpt lat="46.44628" lon="6.05209">
        <ele>1318.8</ele>
        <time>2012-08-16T16:59:09.000Z</time>
      </trkpt>
      <trkpt lat="46.44633" lon="6.05213">
        <ele>1316.9</ele>
        <time>2012-08-16T16:59:11.000Z</time>
      </trkpt>
      <trkpt lat="46.44638" lon="6.05216">
        <ele>1312.4</ele>
        <time>2012-08-16T16:59:13.000Z</time>
      </trkpt>
      <trkpt lat="46.44644" lon="6.05218">
        <ele>1308.1</ele>
        <time>2012-08-16T16:59:16.000Z</time>
      </trkpt>
      <trkpt lat="46.44649" lon="6.05218">
        <ele>1308.6</ele>
        <time>2012-08-16T16:59:20.000Z</time>
      </trkpt>
      <trkpt lat="46.44654" lon="6.05223">
        <ele>1310.1</ele>
        <time>2012-08-16T16:59:23.000Z</time>
      </trkpt>
      <trkpt lat="46.44661" lon="6.05229">
        <ele>1306.7</ele>
        <time>2012-08-16T16:59:26.000Z</time>
      </trkpt>
      <trkpt lat="46.44665" lon="6.05235">
        <ele>1306.5</ele>
        <time>2012-08-16T16:59:28.000Z</time>
      </trkpt>
      <trkpt lat="46.44668" lon="6.05239">
        <ele>1305.7</ele>
        <time>2012-08-16T16:59:30.000Z</time>
      </trkpt>
      <trkpt lat="46.44674" lon="6.05241">
        <ele>1305.5</ele>
        <time>2012-08-16T16:59:35.000Z</time>
      </trkpt>
      <trkpt lat="46.44681" lon="6.05239">
        <ele>1305.6</ele>
        <time>2012-08-16T16:59:39.000Z</time>
      </trkpt>
      <trkpt lat="46.44686" lon="6.05237">
        <ele>1304.8</ele>
        <time>2012-08-16T16:59:42.000Z</time>
      </trkpt>
      <trkpt lat="46.44693" lon="6.05239">
        <ele>1303</ele>
        <time>2012-08-16T16:59:44.000Z</time>
      </trkpt>
      <trkpt lat="46.44697" lon="6.05242">
        <ele>1302.3</ele>
        <time>2012-08-16T16:59:45.000Z</time>
      </trkpt>
      <trkpt lat="46.44705" lon="6.05247">
        <ele>1302.6</ele>
        <time>2012-08-16T16:59:47.000Z</time>
      </trkpt>
      <trkpt lat="46.44712" lon="6.05253">
        <ele>1302.5</ele>
        <time>2012-08-16T16:59:49.000Z</time>
      </trkpt>
      <trkpt lat="46.44719" lon="6.05256">
        <ele>1300.7</ele>
        <time>2012-08-16T16:59:51.000Z</time>
      </trkpt>
      <trkpt lat="46.44726" lon="6.05261">
        <ele>1301.9</ele>
        <time>2012-08-16T16:59:53.000Z</time>
      </trkpt>
      <trkpt lat="46.44732" lon="6.05268">
        <ele>1300.4</ele>
        <time>2012-08-16T16:59:55.000Z</time>
      </trkpt>
      <trkpt lat="46.44737" lon="6.05277">
        <ele>1303.4</ele>
        <time>2012-08-16T16:59:58.000Z</time>
      </trkpt>
      <trkpt lat="46.4474" lon="6.05281">
        <ele>1304.5</ele>
        <time>2012-08-16T17:00:00.000Z</time>
      </trkpt>
      <trkpt lat="46.44746" lon="6.05285">
        <ele>1305.1</ele>
        <time>2012-08-16T17:00:03.000Z</time>
      </trkpt>
      <trkpt lat="46.44752" lon="6.05289">
        <ele>1304.7</ele>
        <time>2012-08-16T17:00:06.000Z</time>
      </trkpt>
      <trkpt lat="46.44756" lon="6.05292">
        <ele>1302.8</ele>
        <time>2012-08-16T17:00:08.000Z</time>
      </trkpt>
      <trkpt lat="46.44761" lon="6.05295">
        <ele>1302.8</ele>
        <time>2012-08-16T17:00:10.000Z</time>
      </trkpt>
      <trkpt lat="46.44765" lon="6.05298">
        <ele>1302.9</ele>
        <time>2012-08-16T17:00:12.000Z</time>
      </trkpt>
      <trkpt lat="46.4477" lon="6.05301">
        <ele>1302.9</ele>
        <time>2012-08-16T17:00:14.000Z</time>
      </trkpt>
      <trkpt lat="46.44774" lon="6.05303">
        <ele>1302.8</ele>
        <time>2012-08-16T17:00:16.000Z</time>
      </trkpt>
      <trkpt lat="46.44779" lon="6.05301">
        <ele>1302.4</ele>
        <time>2012-08-16T17:00:19.000Z</time>
      </trkpt>
      <trkpt lat="46.44785" lon="6.05307">
        <ele>1295.2</ele>
        <time>2012-08-16T17:00:21.000Z</time>
      </trkpt>
      <trkpt lat="46.4479" lon="6.05314">
        <ele>1290.2</ele>
        <time>2012-08-16T17:00:23.000Z</time>
      </trkpt>
      <trkpt lat="46.44796" lon="6.05321">
        <ele>1285.5</ele>
        <time>2012-08-16T17:00:25.000Z</time>
      </trkpt>
      <trkpt lat="46.44803" lon="6.05327">
        <ele>1284.9</ele>
        <time>2012-08-16T17:00:27.000Z</time>
      </trkpt>
      <trkpt lat="46.44809" lon="6.05333">
        <ele>1282.8</ele>
        <time>2012-08-16T17:00:29.000Z</time>
      </trkpt>
      <trkpt lat="46.44815" lon="6.05339">
        <ele>1283.5</ele>
        <time>2012-08-16T17:00:31.000Z</time>
      </trkpt>
      <trkpt lat="46.4482" lon="6.05345">
        <ele>1277.7</ele>
        <time>2012-08-16T17:00:33.000Z</time>
      </trkpt>
      <trkpt lat="46.44824" lon="6.05349">
        <ele>1275.8</ele>
        <time>2012-08-16T17:00:35.000Z</time>
      </trkpt>
      <trkpt lat="46.44829" lon="6.05354">
        <ele>1275</ele>
        <time>2012-08-16T17:00:38.000Z</time>
      </trkpt>
      <trkpt lat="46.44836" lon="6.05357">
        <ele>1274.1</ele>
        <time>2012-08-16T17:00:40.000Z</time>
      </trkpt>
      <trkpt lat="46.44844" lon="6.05359">
        <ele>1273.4</ele>
        <time>2012-08-16T17:00:43.000Z</time>
      </trkpt>
      <trkpt lat="46.44848" lon="6.05362">
        <ele>1270.5</ele>
        <time>2012-08-16T17:00:45.000Z</time>
      </trkpt>
      <trkpt lat="46.44853" lon="6.05367">
        <ele>1273.2</ele>
        <time>2012-08-16T17:00:47.000Z</time>
      </trkpt>
      <trkpt lat="46.44858" lon="6.0537">
        <ele>1273.7</ele>
        <time>2012-08-16T17:00:49.000Z</time>
      </trkpt>
      <trkpt lat="46.44864" lon="6.05373">
        <ele>1274.1</ele>
        <time>2012-08-16T17:00:52.000Z</time>
      </trkpt>
      <trkpt lat="46.44868" lon="6.05376">
        <ele>1272.8</ele>
        <time>2012-08-16T17:00:54.000Z</time>
      </trkpt>
      <trkpt lat="46.44873" lon="6.0538">
        <ele>1272.9</ele>
        <time>2012-08-16T17:00:56.000Z</time>
      </trkpt>
      <trkpt lat="46.44878" lon="6.05384">
        <ele>1273.4</ele>
        <time>2012-08-16T17:00:58.000Z</time>
      </trkpt>
      <trkpt lat="46.44884" lon="6.05386">
        <ele>1274.5</ele>
        <time>2012-08-16T17:01:00.895Z</time>
      </trkpt>
      <trkpt lat="46.4489" lon="6.05388">
        <ele>1275.3</ele>
        <time>2012-08-16T17:01:04.000Z</time>
      </trkpt>
      <trkpt lat="46.44894" lon="6.05392">
        <ele>1275.8</ele>
        <time>2012-08-16T17:01:06.000Z</time>
      </trkpt>
      <trkpt lat="46.449" lon="6.05396">
        <ele>1276.6</ele>
        <time>2012-08-16T17:01:09.000Z</time>
      </trkpt>
      <trkpt lat="46.44905" lon="6.05399">
        <ele>1273.7</ele>
        <time>2012-08-16T17:01:11.000Z</time>
      </trkpt>
      <trkpt lat="46.44911" lon="6.05401">
        <ele>1271</ele>
        <time>2012-08-16T17:01:13.000Z</time>
      </trkpt>
      <trkpt lat="46.44916" lon="6.05404">
        <ele>1269.9</ele>
        <time>2012-08-16T17:01:15.000Z</time>
      </trkpt>
      <trkpt lat="46.44922" lon="6.05407">
        <ele>1270.3</ele>
        <time>2012-08-16T17:01:17.000Z</time>
      </trkpt>
      <trkpt lat="46.44927" lon="6.0541">
        <ele>1270.3</ele>
        <time>2012-08-16T17:01:19.000Z</time>
      </trkpt>
      <trkpt lat="46.44931" lon="6.05412">
        <ele>1270.9</ele>
        <time>2012-08-16T17:01:21.000Z</time>
      </trkpt>
      <trkpt lat="46.44938" lon="6.05409">
        <ele>1271.5</ele>
        <time>2012-08-16T17:01:23.000Z</time>
      </trkpt>
      <trkpt lat="46.44944" lon="6.05405">
        <ele>1272.2</ele>
        <time>2012-08-16T17:01:25.000Z</time>
      </trkpt>
      <trkpt lat="46.44948" lon="6.054">
        <ele>1273.9</ele>
        <time>2012-08-16T17:01:27.000Z</time>
      </trkpt>
      <trkpt lat="46.44952" lon="6.05395">
        <ele>1276.9</ele>
        <time>2012-08-16T17:01:31.000Z</time>
      </trkpt>
      <trkpt lat="46.44957" lon="6.05393">
        <ele>1277.1</ele>
        <time>2012-08-16T17:01:34.000Z</time>
      </trkpt>
      <trkpt lat="46.44962" lon="6.05389">
        <ele>1277.1</ele>
        <time>2012-08-16T17:01:36.000Z</time>
      </trkpt>
      <trkpt lat="46.44969" lon="6.05384">
        <ele>1276.9</ele>
        <time>2012-08-16T17:01:38.000Z</time>
      </trkpt>
      <trkpt lat="46.44975" lon="6.05381">
        <ele>1277</ele>
        <time>2012-08-16T17:01:40.000Z</time>
      </trkpt>
      <trkpt lat="46.4498" lon="6.0538">
        <ele>1276.4</ele>
        <time>2012-08-16T17:01:42.000Z</time>
      </trkpt>
      <trkpt lat="46.44986" lon="6.05379">
        <ele>1275.1</ele>
        <time>2012-08-16T17:01:44.000Z</time>
      </trkpt>
      <trkpt lat="46.44993" lon="6.05375">
        <ele>1271.8</ele>
        <time>2012-08-16T17:01:46.000Z</time>
      </trkpt>
      <trkpt lat="46.44999" lon="6.0537">
        <ele>1273.1</ele>
        <time>2012-08-16T17:01:48.000Z</time>
      </trkpt>
      <trkpt lat="46.45006" lon="6.05364">
        <ele>1271.8</ele>
        <time>2012-08-16T17:01:50.000Z</time>
      </trkpt>
      <trkpt lat="46.45012" lon="6.05359">
        <ele>1271.4</ele>
        <time>2012-08-16T17:01:52.000Z</time>
      </trkpt>
      <trkpt lat="46.45017" lon="6.05355">
        <ele>1271.1</ele>
        <time>2012-08-16T17:01:54.000Z</time>
      </trkpt>
      <trkpt lat="46.45023" lon="6.05351">
        <ele>1271.4</ele>
        <time>2012-08-16T17:01:56.000Z</time>
      </trkpt>
      <trkpt lat="46.45028" lon="6.05353">
        <ele>1273.2</ele>
        <time>2012-08-16T17:02:00.000Z</time>
      </trkpt>
      <trkpt lat="46.45035" lon="6.05351">
        <ele>1272.7</ele>
        <time>2012-08-16T17:02:04.000Z</time>
      </trkpt>
      <trkpt lat="46.45039" lon="6.05347">
        <ele>1273.7</ele>
        <time>2012-08-16T17:02:07.000Z</time>
      </trkpt>
      <trkpt lat="46.45042" lon="6.05341">
        <ele>1274.6</ele>
        <time>2012-08-16T17:02:10.000Z</time>
      </trkpt>
      <trkpt lat="46.45046" lon="6.05337">
        <ele>1270.6</ele>
        <time>2012-08-16T17:02:13.000Z</time>
      </trkpt>
      <trkpt lat="46.45048" lon="6.0533">
        <ele>1267</ele>
        <time>2012-08-16T17:02:15.000Z</time>
      </trkpt>
      <trkpt lat="46.45051" lon="6.05322">
        <ele>1266.2</ele>
        <time>2012-08-16T17:02:17.000Z</time>
      </trkpt>
      <trkpt lat="46.45051" lon="6.05313">
        <ele>1263.6</ele>
        <time>2012-08-16T17:02:19.000Z</time>
      </trkpt>
      <trkpt lat="46.4505" lon="6.05306">
        <ele>1262.8</ele>
        <time>2012-08-16T17:02:21.000Z</time>
      </trkpt>
      <trkpt lat="46.4505" lon="6.05299">
        <ele>1261.6</ele>
        <time>2012-08-16T17:02:23.000Z</time>
      </trkpt>
      <trkpt lat="46.45051" lon="6.05291">
        <ele>1265.8</ele>
        <time>2012-08-16T17:02:25.000Z</time>
      </trkpt>
      <trkpt lat="46.45052" lon="6.05284">
        <ele>1267</ele>
        <time>2012-08-16T17:02:27.000Z</time>
      </trkpt>
      <trkpt lat="46.45052" lon="6.05276">
        <ele>1265.4</ele>
        <time>2012-08-16T17:02:29.000Z</time>
      </trkpt>
      <trkpt lat="46.45051" lon="6.05268">
        <ele>1262.9</ele>
        <time>2012-08-16T17:02:31.000Z</time>
      </trkpt>
      <trkpt lat="46.45049" lon="6.05259">
        <ele>1263.8</ele>
        <time>2012-08-16T17:02:34.000Z</time>
      </trkpt>
      <trkpt lat="46.45045" lon="6.05251">
        <ele>1263.2</ele>
        <time>2012-08-16T17:02:37.000Z</time>
      </trkpt>
      <trkpt lat="46.4504" lon="6.05244">
        <ele>1264.4</ele>
        <time>2012-08-16T17:02:40.000Z</time>
      </trkpt>
      <trkpt lat="46.45037" lon="6.05237">
        <ele>1261.6</ele>
        <time>2012-08-16T17:02:43.000Z</time>
      </trkpt>
      <trkpt lat="46.45034" lon="6.05231">
        <ele>1259.1</ele>
        <time>2012-08-16T17:02:45.000Z</time>
      </trkpt>
      <trkpt lat="46.45028" lon="6.05224">
        <ele>1260.7</ele>
        <time>2012-08-16T17:02:48.000Z</time>
      </trkpt>
      <trkpt lat="46.45024" lon="6.05219">
        <ele>1260.1</ele>
        <time>2012-08-16T17:02:51.000Z</time>
      </trkpt>
      <trkpt lat="46.45023" lon="6.05207">
        <ele>1261.3</ele>
        <time>2012-08-16T17:02:54.000Z</time>
      </trkpt>
      <trkpt lat="46.45024" lon="6.052">
        <ele>1261</ele>
        <time>2012-08-16T17:02:56.000Z</time>
      </trkpt>
      <trkpt lat="46.45029" lon="6.05191">
        <ele>1260.9</ele>
        <time>2012-08-16T17:02:58.000Z</time>
      </trkpt>
      <trkpt lat="46.45037" lon="6.05182">
        <ele>1262.5</ele>
        <time>2012-08-16T17:03:02.000Z</time>
      </trkpt>
      <trkpt lat="46.45041" lon="6.0518">
        <ele>1262.7</ele>
        <time>2012-08-16T17:03:04.000Z</time>
      </trkpt>
      <trkpt lat="46.45047" lon="6.0518">
        <ele>1259.3</ele>
        <time>2012-08-16T17:03:06.000Z</time>
      </trkpt>
      <trkpt lat="46.45054" lon="6.05179">
        <ele>1255.4</ele>
        <time>2012-08-16T17:03:08.000Z</time>
      </trkpt>
      <trkpt lat="46.4506" lon="6.05179">
        <ele>1253.6</ele>
        <time>2012-08-16T17:03:10.000Z</time>
      </trkpt>
      <trkpt lat="46.45066" lon="6.05178">
        <ele>1253.2</ele>
        <time>2012-08-16T17:03:12.000Z</time>
      </trkpt>
      <trkpt lat="46.4507" lon="6.05172">
        <ele>1263.7</ele>
        <time>2012-08-16T17:03:15.000Z</time>
      </trkpt>
      <trkpt lat="46.45075" lon="6.05167">
        <ele>1264.8</ele>
        <time>2012-08-16T17:03:18.000Z</time>
      </trkpt>
      <trkpt lat="46.45083" lon="6.05162">
        <ele>1264.7</ele>
        <time>2012-08-16T17:03:22.000Z</time>
      </trkpt>
      <trkpt lat="46.45089" lon="6.05162">
        <ele>1269.5</ele>
        <time>2012-08-16T17:03:24.000Z</time>
      </trkpt>
      <trkpt lat="46.45096" lon="6.05163">
        <ele>1267.3</ele>
        <time>2012-08-16T17:03:26.000Z</time>
      </trkpt>
      <trkpt lat="46.45101" lon="6.05165">
        <ele>1266.2</ele>
        <time>2012-08-16T17:03:28.000Z</time>
      </trkpt>
      <trkpt lat="46.45106" lon="6.05166">
        <ele>1267.5</ele>
        <time>2012-08-16T17:03:30.000Z</time>
      </trkpt>
      <trkpt lat="46.45112" lon="6.05169">
        <ele>1270.4</ele>
        <time>2012-08-16T17:03:33.000Z</time>
      </trkpt>
      <trkpt lat="46.45118" lon="6.05172">
        <ele>1269.1</ele>
        <time>2012-08-16T17:03:36.000Z</time>
      </trkpt>
      <trkpt lat="46.45123" lon="6.05175">
        <ele>1269.7</ele>
        <time>2012-08-16T17:03:38.000Z</time>
      </trkpt>
      <trkpt lat="46.45128" lon="6.05176">
        <ele>1268</ele>
        <time>2012-08-16T17:03:40.000Z</time>
      </trkpt>
      <trkpt lat="46.45133" lon="6.05177">
        <ele>1270.8</ele>
        <time>2012-08-16T17:03:42.000Z</time>
      </trkpt>
      <trkpt lat="46.45138" lon="6.05178">
        <ele>1270.7</ele>
        <time>2012-08-16T17:03:44.000Z</time>
      </trkpt>
      <trkpt lat="46.45143" lon="6.0518">
        <ele>1270.3</ele>
        <time>2012-08-16T17:03:47.000Z</time>
      </trkpt>
      <trkpt lat="46.45148" lon="6.0518">
        <ele>1271</ele>
        <time>2012-08-16T17:03:50.000Z</time>
      </trkpt>
      <trkpt lat="46.45154" lon="6.05177">
        <ele>1270.1</ele>
        <time>2012-08-16T17:03:57.000Z</time>
      </trkpt>
      <trkpt lat="46.45159" lon="6.05179">
        <ele>1271.1</ele>
        <time>2012-08-16T17:04:00.000Z</time>
      </trkpt>
      <trkpt lat="46.45167" lon="6.05184">
        <ele>1271.5</ele>
        <time>2012-08-16T17:04:02.000Z</time>
      </trkpt>
      <trkpt lat="46.45173" lon="6.05187">
        <ele>1271.8</ele>
        <time>2012-08-16T17:04:03.000Z</time>
      </trkpt>
      <trkpt lat="46.45182" lon="6.0519">
        <ele>1271</ele>
        <time>2012-08-16T17:04:05.000Z</time>
      </trkpt>
      <trkpt lat="46.45188" lon="6.05188">
        <ele>1271.7</ele>
        <time>2012-08-16T17:04:07.000Z</time>
      </trkpt>
      <trkpt lat="46.45193" lon="6.05187">
        <ele>1272</ele>
        <time>2012-08-16T17:04:08.000Z</time>
      </trkpt>
      <trkpt lat="46.452" lon="6.05186">
        <ele>1271.7</ele>
        <time>2012-08-16T17:04:11.000Z</time>
      </trkpt>
      <trkpt lat="46.45208" lon="6.05189">
        <ele>1266.3</ele>
        <time>2012-08-16T17:04:14.000Z</time>
      </trkpt>
      <trkpt lat="46.45214" lon="6.05188">
        <ele>1263.5</ele>
        <time>2012-08-16T17:04:16.000Z</time>
      </trkpt>
      <trkpt lat="46.45219" lon="6.05184">
        <ele>1262.9</ele>
        <time>2012-08-16T17:04:18.000Z</time>
      </trkpt>
      <trkpt lat="46.45225" lon="6.05178">
        <ele>1263.5</ele>
        <time>2012-08-16T17:04:20.000Z</time>
      </trkpt>
      <trkpt lat="46.45229" lon="6.0517">
        <ele>1264.2</ele>
        <time>2012-08-16T17:04:23.000Z</time>
      </trkpt>
      <trkpt lat="46.45234" lon="6.05164">
        <ele>1261.7</ele>
        <time>2012-08-16T17:04:25.000Z</time>
      </trkpt>
      <trkpt lat="46.45238" lon="6.05159">
        <ele>1257.4</ele>
        <time>2012-08-16T17:04:26.000Z</time>
      </trkpt>
      <trkpt lat="46.45242" lon="6.05155">
        <ele>1258.1</ele>
        <time>2012-08-16T17:04:27.000Z</time>
      </trkpt>
      <trkpt lat="46.45248" lon="6.05149">
        <ele>1255</ele>
        <time>2012-08-16T17:04:29.000Z</time>
      </trkpt>
      <trkpt lat="46.45253" lon="6.05144">
        <ele>1253.5</ele>
        <time>2012-08-16T17:04:31.000Z</time>
      </trkpt>
      <trkpt lat="46.45257" lon="6.0514">
        <ele>1252.5</ele>
        <time>2012-08-16T17:04:33.000Z</time>
      </trkpt>
      <trkpt lat="46.45262" lon="6.05136">
        <ele>1254.2</ele>
        <time>2012-08-16T17:04:35.000Z</time>
      </trkpt>
      <trkpt lat="46.45266" lon="6.05132">
        <ele>1252.4</ele>
        <time>2012-08-16T17:04:37.000Z</time>
      </trkpt>
      <trkpt lat="46.45271" lon="6.05126">
        <ele>1250.8</ele>
        <time>2012-08-16T17:04:39.000Z</time>
      </trkpt>
      <trkpt lat="46.45276" lon="6.05121">
        <ele>1249.9</ele>
        <time>2012-08-16T17:04:41.000Z</time>
      </trkpt>
      <trkpt lat="46.4528" lon="6.05116">
        <ele>1249</ele>
        <time>2012-08-16T17:04:43.000Z</time>
      </trkpt>
      <trkpt lat="46.45285" lon="6.05111">
        <ele>1248.4</ele>
        <time>2012-08-16T17:04:45.000Z</time>
      </trkpt>
      <trkpt lat="46.45289" lon="6.05107">
        <ele>1248.2</ele>
        <time>2012-08-16T17:04:47.000Z</time>
      </trkpt>
      <trkpt lat="46.45293" lon="6.05103">
        <ele>1247.6</ele>
        <time>2012-08-16T17:04:50.000Z</time>
      </trkpt>
      <trkpt lat="46.45298" lon="6.05099">
        <ele>1248.5</ele>
        <time>2012-08-16T17:04:54.000Z</time>
      </trkpt>
      <trkpt lat="46.45303" lon="6.051">
        <ele>1247.7</ele>
        <time>2012-08-16T17:04:57.000Z</time>
      </trkpt>
      <trkpt lat="46.45308" lon="6.05096">
        <ele>1244.3</ele>
        <time>2012-08-16T17:04:59.000Z</time>
      </trkpt>
      <trkpt lat="46.45314" lon="6.05095">
        <ele>1243.6</ele>
        <time>2012-08-16T17:05:01.000Z</time>
      </trkpt>
      <trkpt lat="46.4532" lon="6.05094">
        <ele>1241.9</ele>
        <time>2012-08-16T17:05:03.000Z</time>
      </trkpt>
      <trkpt lat="46.45325" lon="6.05094">
        <ele>1240.7</ele>
        <time>2012-08-16T17:05:05.000Z</time>
      </trkpt>
      <trkpt lat="46.4533" lon="6.05093">
        <ele>1240.2</ele>
        <time>2012-08-16T17:05:08.000Z</time>
      </trkpt>
      <trkpt lat="46.45336" lon="6.05095">
        <ele>1239.7</ele>
        <time>2012-08-16T17:05:11.000Z</time>
      </trkpt>
      <trkpt lat="46.45341" lon="6.051">
        <ele>1238.7</ele>
        <time>2012-08-16T17:05:14.000Z</time>
      </trkpt>
      <trkpt lat="46.45346" lon="6.05104">
        <ele>1240.2</ele>
        <time>2012-08-16T17:05:16.000Z</time>
      </trkpt>
      <trkpt lat="46.45349" lon="6.05099">
        <ele>1240.4</ele>
        <time>2012-08-16T17:05:20.000Z</time>
      </trkpt>
      <trkpt lat="46.45353" lon="6.05095">
        <ele>1247.7</ele>
        <time>2012-08-16T17:05:23.000Z</time>
      </trkpt>
      <trkpt lat="46.45357" lon="6.0509">
        <ele>1254.3</ele>
        <time>2012-08-16T17:05:26.000Z</time>
      </trkpt>
      <trkpt lat="46.45362" lon="6.05086">
        <ele>1256</ele>
        <time>2012-08-16T17:05:29.000Z</time>
      </trkpt>
      <trkpt lat="46.45369" lon="6.05091">
        <ele>1255.6</ele>
        <time>2012-08-16T17:05:33.000Z</time>
      </trkpt>
      <trkpt lat="46.45376" lon="6.05096">
        <ele>1256.5</ele>
        <time>2012-08-16T17:05:35.000Z</time>
      </trkpt>
      <trkpt lat="46.45382" lon="6.05099">
        <ele>1256.5</ele>
        <time>2012-08-16T17:05:37.000Z</time>
      </trkpt>
      <trkpt lat="46.45391" lon="6.05101">
        <ele>1256.5</ele>
        <time>2012-08-16T17:05:39.000Z</time>
      </trkpt>
      <trkpt lat="46.45397" lon="6.05105">
        <ele>1254.5</ele>
        <time>2012-08-16T17:05:41.000Z</time>
      </trkpt>
      <trkpt lat="46.45404" lon="6.0511">
        <ele>1253.9</ele>
        <time>2012-08-16T17:05:43.000Z</time>
      </trkpt>
      <trkpt lat="46.45412" lon="6.05122">
        <ele>1249.8</ele>
        <time>2012-08-16T17:05:45.000Z</time>
      </trkpt>
      <trkpt lat="46.45417" lon="6.05128">
        <ele>1251.9</ele>
        <time>2012-08-16T17:05:47.000Z</time>
      </trkpt>
      <trkpt lat="46.45422" lon="6.05133">
        <ele>1249.7</ele>
        <time>2012-08-16T17:05:49.000Z</time>
      </trkpt>
      <trkpt lat="46.45428" lon="6.05137">
        <ele>1249</ele>
        <time>2012-08-16T17:05:51.000Z</time>
      </trkpt>
      <trkpt lat="46.45433" lon="6.05139">
        <ele>1248.5</ele>
        <time>2012-08-16T17:05:53.000Z</time>
      </trkpt>
      <trkpt lat="46.4544" lon="6.05144">
        <ele>1245.3</ele>
        <time>2012-08-16T17:05:55.000Z</time>
      </trkpt>
      <trkpt lat="46.45444" lon="6.05146">
        <ele>1246.4</ele>
        <time>2012-08-16T17:05:57.000Z</time>
      </trkpt>
      <trkpt lat="46.45449" lon="6.0515">
        <ele>1243</ele>
        <time>2012-08-16T17:05:59.000Z</time>
      </trkpt>
      <trkpt lat="46.45453" lon="6.05154">
        <ele>1243.8</ele>
        <time>2012-08-16T17:06:00.977Z</time>
      </trkpt>
      <trkpt lat="46.45459" lon="6.05158">
        <ele>1239.3</ele>
        <time>2012-08-16T17:06:03.000Z</time>
      </trkpt>
      <trkpt lat="46.45464" lon="6.05159">
        <ele>1236.6</ele>
        <time>2012-08-16T17:06:05.000Z</time>
      </trkpt>
      <trkpt lat="46.45468" lon="6.05161">
        <ele>1236.3</ele>
        <time>2012-08-16T17:06:07.000Z</time>
      </trkpt>
      <trkpt lat="46.45472" lon="6.05165">
        <ele>1234.4</ele>
        <time>2012-08-16T17:06:09.000Z</time>
      </trkpt>
      <trkpt lat="46.45477" lon="6.05168">
        <ele>1232</ele>
        <time>2012-08-16T17:06:12.000Z</time>
      </trkpt>
      <trkpt lat="46.45482" lon="6.0517">
        <ele>1236</ele>
        <time>2012-08-16T17:06:16.000Z</time>
      </trkpt>
      <trkpt lat="46.45485" lon="6.05176">
        <ele>1240.1</ele>
        <time>2012-08-16T17:06:19.000Z</time>
      </trkpt>
      <trkpt lat="46.45488" lon="6.05182">
        <ele>1241.6</ele>
        <time>2012-08-16T17:06:23.000Z</time>
      </trkpt>
      <trkpt lat="46.45495" lon="6.05182">
        <ele>1238.7</ele>
        <time>2012-08-16T17:06:26.000Z</time>
      </trkpt>
      <trkpt lat="46.455" lon="6.05185">
        <ele>1239.6</ele>
        <time>2012-08-16T17:06:28.000Z</time>
      </trkpt>
      <trkpt lat="46.45507" lon="6.0519">
        <ele>1241.1</ele>
        <time>2012-08-16T17:06:30.000Z</time>
      </trkpt>
      <trkpt lat="46.45511" lon="6.05193">
        <ele>1240.6</ele>
        <time>2012-08-16T17:06:32.000Z</time>
      </trkpt>
      <trkpt lat="46.45515" lon="6.05197">
        <ele>1240.6</ele>
        <time>2012-08-16T17:06:34.000Z</time>
      </trkpt>
      <trkpt lat="46.4552" lon="6.05202">
        <ele>1237</ele>
        <time>2012-08-16T17:06:37.000Z</time>
      </trkpt>
      <trkpt lat="46.45525" lon="6.05208">
        <ele>1235.7</ele>
        <time>2012-08-16T17:06:40.000Z</time>
      </trkpt>
      <trkpt lat="46.4553" lon="6.05213">
        <ele>1230.3</ele>
        <time>2012-08-16T17:06:43.000Z</time>
      </trkpt>
      <trkpt lat="46.45534" lon="6.05217">
        <ele>1228.2</ele>
        <time>2012-08-16T17:06:45.000Z</time>
      </trkpt>
      <trkpt lat="46.45537" lon="6.05222">
        <ele>1228.5</ele>
        <time>2012-08-16T17:06:47.000Z</time>
      </trkpt>
      <trkpt lat="46.45539" lon="6.0523">
        <ele>1230</ele>
        <time>2012-08-16T17:06:50.000Z</time>
      </trkpt>
      <trkpt lat="46.45541" lon="6.05236">
        <ele>1228.8</ele>
        <time>2012-08-16T17:06:53.000Z</time>
      </trkpt>
      <trkpt lat="46.45545" lon="6.05245">
        <ele>1225.6</ele>
        <time>2012-08-16T17:06:56.000Z</time>
      </trkpt>
      <trkpt lat="46.4555" lon="6.05253">
        <ele>1223.5</ele>
        <time>2012-08-16T17:06:58.000Z</time>
      </trkpt>
      <trkpt lat="46.45556" lon="6.05265">
        <ele>1224.2</ele>
        <time>2012-08-16T17:07:01.000Z</time>
      </trkpt>
      <trkpt lat="46.45559" lon="6.05271">
        <ele>1224.8</ele>
        <time>2012-08-16T17:07:03.000Z</time>
      </trkpt>
      <trkpt lat="46.45562" lon="6.05279">
        <ele>1225.1</ele>
        <time>2012-08-16T17:07:06.000Z</time>
      </trkpt>
      <trkpt lat="46.45564" lon="6.05285">
        <ele>1228.1</ele>
        <time>2012-08-16T17:07:09.000Z</time>
      </trkpt>
      <trkpt lat="46.45567" lon="6.05292">
        <ele>1228.6</ele>
        <time>2012-08-16T17:07:12.000Z</time>
      </trkpt>
      <trkpt lat="46.45569" lon="6.05298">
        <ele>1229</ele>
        <time>2012-08-16T17:07:15.000Z</time>
      </trkpt>
      <trkpt lat="46.45572" lon="6.05304">
        <ele>1229.1</ele>
        <time>2012-08-16T17:07:18.000Z</time>
      </trkpt>
      <trkpt lat="46.45575" lon="6.0531">
        <ele>1230.2</ele>
        <time>2012-08-16T17:07:20.000Z</time>
      </trkpt>
      <trkpt lat="46.45577" lon="6.05315">
        <ele>1230</ele>
        <time>2012-08-16T17:07:22.000Z</time>
      </trkpt>
      <trkpt lat="46.45581" lon="6.05323">
        <ele>1230.6</ele>
        <time>2012-08-16T17:07:25.000Z</time>
      </trkpt>
      <trkpt lat="46.45584" lon="6.05328">
        <ele>1231.2</ele>
        <time>2012-08-16T17:07:27.000Z</time>
      </trkpt>
      <trkpt lat="46.45588" lon="6.05334">
        <ele>1230.7</ele>
        <time>2012-08-16T17:07:30.000Z</time>
      </trkpt>
      <trkpt lat="46.4559" lon="6.05342">
        <ele>1230.5</ele>
        <time>2012-08-16T17:07:33.000Z</time>
      </trkpt>
      <trkpt lat="46.45592" lon="6.0535">
        <ele>1233.2</ele>
        <time>2012-08-16T17:07:36.000Z</time>
      </trkpt>
      <trkpt lat="46.45595" lon="6.05355">
        <ele>1236</ele>
        <time>2012-08-16T17:07:39.000Z</time>
      </trkpt>
      <trkpt lat="46.45597" lon="6.05363">
        <ele>1238</ele>
        <time>2012-08-16T17:07:43.000Z</time>
      </trkpt>
      <trkpt lat="46.456" lon="6.0537">
        <ele>1237</ele>
        <time>2012-08-16T17:07:46.000Z</time>
      </trkpt>
      <trkpt lat="46.45603" lon="6.05376">
        <ele>1235.8</ele>
        <time>2012-08-16T17:07:48.000Z</time>
      </trkpt>
      <trkpt lat="46.45606" lon="6.05383">
        <ele>1236.4</ele>
        <time>2012-08-16T17:07:50.000Z</time>
      </trkpt>
      <trkpt lat="46.45609" lon="6.0539">
        <ele>1236.8</ele>
        <time>2012-08-16T17:07:52.000Z</time>
      </trkpt>
      <trkpt lat="46.4561" lon="6.05396">
        <ele>1237.5</ele>
        <time>2012-08-16T17:07:54.000Z</time>
      </trkpt>
      <trkpt lat="46.45612" lon="6.05403">
        <ele>1236.6</ele>
        <time>2012-08-16T17:07:56.000Z</time>
      </trkpt>
      <trkpt lat="46.45614" lon="6.05412">
        <ele>1235.2</ele>
        <time>2012-08-16T17:08:01.000Z</time>
      </trkpt>
      <trkpt lat="46.45616" lon="6.05418">
        <ele>1236.4</ele>
        <time>2012-08-16T17:08:03.000Z</time>
      </trkpt>
      <trkpt lat="46.45618" lon="6.05425">
        <ele>1233.7</ele>
        <time>2012-08-16T17:08:05.000Z</time>
      </trkpt>
      <trkpt lat="46.45622" lon="6.05435">
        <ele>1231.3</ele>
        <time>2012-08-16T17:08:07.000Z</time>
      </trkpt>
      <trkpt lat="46.45626" lon="6.05444">
        <ele>1230.7</ele>
        <time>2012-08-16T17:08:09.000Z</time>
      </trkpt>
      <trkpt lat="46.45631" lon="6.05452">
        <ele>1229.9</ele>
        <time>2012-08-16T17:08:11.000Z</time>
      </trkpt>
      <trkpt lat="46.45634" lon="6.05457">
        <ele>1236.1</ele>
        <time>2012-08-16T17:08:13.000Z</time>
      </trkpt>
      <trkpt lat="46.45637" lon="6.05464">
        <ele>1238.3</ele>
        <time>2012-08-16T17:08:16.000Z</time>
      </trkpt>
      <trkpt lat="46.4564" lon="6.0547">
        <ele>1244.9</ele>
        <time>2012-08-16T17:08:20.000Z</time>
      </trkpt>
      <trkpt lat="46.45643" lon="6.05476">
        <ele>1243.3</ele>
        <time>2012-08-16T17:08:22.000Z</time>
      </trkpt>
      <trkpt lat="46.45647" lon="6.05485">
        <ele>1239.8</ele>
        <time>2012-08-16T17:08:24.000Z</time>
      </trkpt>
      <trkpt lat="46.45651" lon="6.05494">
        <ele>1236.5</ele>
        <time>2012-08-16T17:08:26.000Z</time>
      </trkpt>
      <trkpt lat="46.45654" lon="6.05499">
        <ele>1233</ele>
        <time>2012-08-16T17:08:27.000Z</time>
      </trkpt>
      <trkpt lat="46.45659" lon="6.05508">
        <ele>1232.6</ele>
        <time>2012-08-16T17:08:29.000Z</time>
      </trkpt>
      <trkpt lat="46.45663" lon="6.05515">
        <ele>1231.4</ele>
        <time>2012-08-16T17:08:31.000Z</time>
      </trkpt>
      <trkpt lat="46.45666" lon="6.0552">
        <ele>1231.8</ele>
        <time>2012-08-16T17:08:33.000Z</time>
      </trkpt>
      <trkpt lat="46.4567" lon="6.05523">
        <ele>1231.6</ele>
        <time>2012-08-16T17:08:35.000Z</time>
      </trkpt>
      <trkpt lat="46.45674" lon="6.05527">
        <ele>1232.3</ele>
        <time>2012-08-16T17:08:39.000Z</time>
      </trkpt>
      <trkpt lat="46.45678" lon="6.05534">
        <ele>1230.6</ele>
        <time>2012-08-16T17:08:43.000Z</time>
      </trkpt>
      <trkpt lat="46.45681" lon="6.05538">
        <ele>1228.8</ele>
        <time>2012-08-16T17:08:45.000Z</time>
      </trkpt>
      <trkpt lat="46.45685" lon="6.05543">
        <ele>1228.3</ele>
        <time>2012-08-16T17:08:47.000Z</time>
      </trkpt>
      <trkpt lat="46.45688" lon="6.05548">
        <ele>1225.8</ele>
        <time>2012-08-16T17:08:49.000Z</time>
      </trkpt>
      <trkpt lat="46.45691" lon="6.05554">
        <ele>1223.9</ele>
        <time>2012-08-16T17:08:51.000Z</time>
      </trkpt>
      <trkpt lat="46.45693" lon="6.0556">
        <ele>1224.8</ele>
        <time>2012-08-16T17:08:53.000Z</time>
      </trkpt>
      <trkpt lat="46.45696" lon="6.05568">
        <ele>1224</ele>
        <time>2012-08-16T17:08:55.000Z</time>
      </trkpt>
      <trkpt lat="46.45698" lon="6.05574">
        <ele>1224</ele>
        <time>2012-08-16T17:08:57.000Z</time>
      </trkpt>
      <trkpt lat="46.45697" lon="6.05583">
        <ele>1243.4</ele>
        <time>2012-08-16T17:09:01.000Z</time>
      </trkpt>
      <trkpt lat="46.45697" lon="6.05591">
        <ele>1240.8</ele>
        <time>2012-08-16T17:09:03.000Z</time>
      </trkpt>
      <trkpt lat="46.45696" lon="6.05598">
        <ele>1248.1</ele>
        <time>2012-08-16T17:09:06.000Z</time>
      </trkpt>
      <trkpt lat="46.45696" lon="6.05605">
        <ele>1248.1</ele>
        <time>2012-08-16T17:09:11.000Z</time>
      </trkpt>
      <trkpt lat="46.45696" lon="6.05605">
        <ele>1248.1</ele>
        <time>2012-08-16T17:09:11.000Z</time>
      </trkpt>
      <trkpt lat="46.45696" lon="6.05605">
        <ele>1248.1</ele>
        <time>2012-08-16T17:09:12.000Z</time>
      </trkpt>
      <trkpt lat="46.45696" lon="6.05598">
        <ele>1236.9</ele>
        <time>2012-08-16T17:09:18.000Z</time>
      </trkpt>
      <trkpt lat="46.45693" lon="6.05593">
        <ele>1228.6</ele>
        <time>2012-08-16T17:09:20.000Z</time>
      </trkpt>
      <trkpt lat="46.4569" lon="6.05587">
        <ele>1222.4</ele>
        <time>2012-08-16T17:09:23.000Z</time>
      </trkpt>
      <trkpt lat="46.45687" lon="6.05579">
        <ele>1221.7</ele>
        <time>2012-08-16T17:09:26.000Z</time>
      </trkpt>
      <trkpt lat="46.4569" lon="6.05571">
        <ele>1220.4</ele>
        <time>2012-08-16T17:09:29.000Z</time>
      </trkpt>
      <trkpt lat="46.45694" lon="6.05564">
        <ele>1213.3</ele>
        <time>2012-08-16T17:09:33.000Z</time>
      </trkpt>
      <trkpt lat="46.45695" lon="6.05555">
        <ele>1214.1</ele>
        <time>2012-08-16T17:09:38.000Z</time>
      </trkpt>
      <trkpt lat="46.45698" lon="6.05546">
        <ele>1213.9</ele>
        <time>2012-08-16T17:09:42.000Z</time>
      </trkpt>
      <trkpt lat="46.45702" lon="6.0554">
        <ele>1213.9</ele>
        <time>2012-08-16T17:09:44.000Z</time>
      </trkpt>
      <trkpt lat="46.45708" lon="6.05532">
        <ele>1213.8</ele>
        <time>2012-08-16T17:09:46.000Z</time>
      </trkpt>
      <trkpt lat="46.45731" lon="6.05501">
        <ele>1213.7</ele>
        <time>2012-08-16T17:09:48.000Z</time>
      </trkpt>
      <trkpt lat="46.45738" lon="6.05495">
        <ele>1213.5</ele>
        <time>2012-08-16T17:09:49.000Z</time>
      </trkpt>
      <trkpt lat="46.45742" lon="6.0549">
        <ele>1213.5</ele>
        <time>2012-08-16T17:09:50.000Z</time>
      </trkpt>
      <trkpt lat="46.45747" lon="6.0549">
        <ele>1213.4</ele>
        <time>2012-08-16T17:09:52.000Z</time>
      </trkpt>
      <trkpt lat="46.45743" lon="6.055">
        <ele>1212.8</ele>
        <time>2012-08-16T17:09:53.000Z</time>
      </trkpt>
      <trkpt lat="46.45743" lon="6.05507">
        <ele>1212.8</ele>
        <time>2012-08-16T17:09:54.000Z</time>
      </trkpt>
      <trkpt lat="46.45754" lon="6.05507">
        <ele>1212.5</ele>
        <time>2012-08-16T17:09:58.000Z</time>
      </trkpt>
      <trkpt lat="46.45758" lon="6.05506">
        <ele>1211.5</ele>
        <time>2012-08-16T17:10:00.000Z</time>
      </trkpt>
      <trkpt lat="46.45764" lon="6.05502">
        <ele>1211.3</ele>
        <time>2012-08-16T17:10:02.000Z</time>
      </trkpt>
      <trkpt lat="46.45768" lon="6.05497">
        <ele>1210.8</ele>
        <time>2012-08-16T17:10:03.000Z</time>
      </trkpt>
      <trkpt lat="46.45774" lon="6.05489">
        <ele>1210.9</ele>
        <time>2012-08-16T17:10:05.000Z</time>
      </trkpt>
      <trkpt lat="46.45779" lon="6.05484">
        <ele>1210.8</ele>
        <time>2012-08-16T17:10:08.000Z</time>
      </trkpt>
      <trkpt lat="46.45783" lon="6.05482">
        <ele>1209.4</ele>
        <time>2012-08-16T17:10:11.000Z</time>
      </trkpt>
      <trkpt lat="46.45789" lon="6.05475">
        <ele>1208.2</ele>
        <time>2012-08-16T17:10:14.000Z</time>
      </trkpt>
      <trkpt lat="46.45793" lon="6.05468">
        <ele>1207.5</ele>
        <time>2012-08-16T17:10:16.000Z</time>
      </trkpt>
      <trkpt lat="46.45797" lon="6.05462">
        <ele>1207.1</ele>
        <time>2012-08-16T17:10:18.000Z</time>
      </trkpt>
      <trkpt lat="46.45801" lon="6.05458">
        <ele>1205.9</ele>
        <time>2012-08-16T17:10:19.000Z</time>
      </trkpt>
      <trkpt lat="46.45806" lon="6.0545">
        <ele>1205.9</ele>
        <time>2012-08-16T17:10:21.000Z</time>
      </trkpt>
      <trkpt lat="46.45812" lon="6.05444">
        <ele>1206.1</ele>
        <time>2012-08-16T17:10:23.000Z</time>
      </trkpt>
      <trkpt lat="46.45817" lon="6.05439">
        <ele>1205.9</ele>
        <time>2012-08-16T17:10:25.000Z</time>
      </trkpt>
      <trkpt lat="46.45823" lon="6.05432">
        <ele>1206.1</ele>
        <time>2012-08-16T17:10:27.000Z</time>
      </trkpt>
      <trkpt lat="46.45828" lon="6.05428">
        <ele>1205.7</ele>
        <time>2012-08-16T17:10:29.000Z</time>
      </trkpt>
      <trkpt lat="46.45832" lon="6.05425">
        <ele>1205.2</ele>
        <time>2012-08-16T17:10:31.000Z</time>
      </trkpt>
      <trkpt lat="46.45837" lon="6.05423">
        <ele>1211.8</ele>
        <time>2012-08-16T17:10:34.000Z</time>
      </trkpt>
      <trkpt lat="46.45843" lon="6.0542">
        <ele>1206.8</ele>
        <time>2012-08-16T17:10:37.000Z</time>
      </trkpt>
      <trkpt lat="46.45847" lon="6.05414">
        <ele>1201.4</ele>
        <time>2012-08-16T17:10:41.000Z</time>
      </trkpt>
      <trkpt lat="46.45848" lon="6.05406">
        <ele>1205.1</ele>
        <time>2012-08-16T17:10:43.000Z</time>
      </trkpt>
      <trkpt lat="46.45849" lon="6.05396">
        <ele>1200</ele>
        <time>2012-08-16T17:10:45.000Z</time>
      </trkpt>
      <trkpt lat="46.45849" lon="6.05388">
        <ele>1197.3</ele>
        <time>2012-08-16T17:10:47.000Z</time>
      </trkpt>
      <trkpt lat="46.4585" lon="6.05381">
        <ele>1193.8</ele>
        <time>2012-08-16T17:10:49.000Z</time>
      </trkpt>
      <trkpt lat="46.45852" lon="6.05374">
        <ele>1193.4</ele>
        <time>2012-08-16T17:10:51.000Z</time>
      </trkpt>
      <trkpt lat="46.45853" lon="6.05366">
        <ele>1193.8</ele>
        <time>2012-08-16T17:10:53.000Z</time>
      </trkpt>
      <trkpt lat="46.45853" lon="6.05358">
        <ele>1195</ele>
        <time>2012-08-16T17:10:55.000Z</time>
      </trkpt>
      <trkpt lat="46.45853" lon="6.0535">
        <ele>1194.8</ele>
        <time>2012-08-16T17:10:57.000Z</time>
      </trkpt>
      <trkpt lat="46.45853" lon="6.05342">
        <ele>1192.2</ele>
        <time>2012-08-16T17:11:00.000Z</time>
      </trkpt>
      <trkpt lat="46.45856" lon="6.05335">
        <ele>1190.8</ele>
        <time>2012-08-16T17:11:02.000Z</time>
      </trkpt>
      <trkpt lat="46.45859" lon="6.05328">
        <ele>1190.5</ele>
        <time>2012-08-16T17:11:04.000Z</time>
      </trkpt>
      <trkpt lat="46.45861" lon="6.05321">
        <ele>1188.7</ele>
        <time>2012-08-16T17:11:06.000Z</time>
      </trkpt>
      <trkpt lat="46.4586" lon="6.05315">
        <ele>1188.1</ele>
        <time>2012-08-16T17:11:08.000Z</time>
      </trkpt>
      <trkpt lat="46.45857" lon="6.05309">
        <ele>1187.6</ele>
        <time>2012-08-16T17:11:10.000Z</time>
      </trkpt>
      <trkpt lat="46.45853" lon="6.05305">
        <ele>1188</ele>
        <time>2012-08-16T17:11:12.000Z</time>
      </trkpt>
      <trkpt lat="46.45848" lon="6.05302">
        <ele>1187.2</ele>
        <time>2012-08-16T17:11:14.000Z</time>
      </trkpt>
      <trkpt lat="46.45842" lon="6.05297">
        <ele>1185.9</ele>
        <time>2012-08-16T17:11:17.000Z</time>
      </trkpt>
      <trkpt lat="46.45837" lon="6.05294">
        <ele>1187.4</ele>
        <time>2012-08-16T17:11:19.000Z</time>
      </trkpt>
      <trkpt lat="46.45833" lon="6.05292">
        <ele>1187.5</ele>
        <time>2012-08-16T17:11:21.000Z</time>
      </trkpt>
      <trkpt lat="46.45827" lon="6.0529">
        <ele>1187.1</ele>
        <time>2012-08-16T17:11:23.000Z</time>
      </trkpt>
      <trkpt lat="46.45822" lon="6.05289">
        <ele>1182.1</ele>
        <time>2012-08-16T17:11:25.000Z</time>
      </trkpt>
      <trkpt lat="46.45816" lon="6.05288">
        <ele>1178.6</ele>
        <time>2012-08-16T17:11:28.000Z</time>
      </trkpt>
      <trkpt lat="46.45811" lon="6.05292">
        <ele>1179.7</ele>
        <time>2012-08-16T17:11:47.000Z</time>
      </trkpt>
      <trkpt lat="46.45806" lon="6.05292">
        <ele>1180.2</ele>
        <time>2012-08-16T17:11:49.000Z</time>
      </trkpt>
      <trkpt lat="46.45801" lon="6.05291">
        <ele>1180.5</ele>
        <time>2012-08-16T17:11:51.000Z</time>
      </trkpt>
      <trkpt lat="46.45795" lon="6.05288">
        <ele>1177.9</ele>
        <time>2012-08-16T17:11:53.000Z</time>
      </trkpt>
      <trkpt lat="46.4579" lon="6.05282">
        <ele>1179.4</ele>
        <time>2012-08-16T17:11:55.000Z</time>
      </trkpt>
      <trkpt lat="46.45784" lon="6.05275">
        <ele>1179.7</ele>
        <time>2012-08-16T17:11:57.000Z</time>
      </trkpt>
      <trkpt lat="46.45778" lon="6.05267">
        <ele>1180.5</ele>
        <time>2012-08-16T17:11:59.000Z</time>
      </trkpt>
      <trkpt lat="46.45773" lon="6.0526">
        <ele>1181.9</ele>
        <time>2012-08-16T17:12:01.000Z</time>
      </trkpt>
      <trkpt lat="46.45768" lon="6.05256">
        <ele>1181.1</ele>
        <time>2012-08-16T17:12:03.000Z</time>
      </trkpt>
      <trkpt lat="46.45763" lon="6.05253">
        <ele>1181.1</ele>
        <time>2012-08-16T17:12:05.000Z</time>
      </trkpt>
      <trkpt lat="46.45757" lon="6.05251">
        <ele>1180.7</ele>
        <time>2012-08-16T17:12:07.000Z</time>
      </trkpt>
      <trkpt lat="46.45752" lon="6.05248">
        <ele>1181</ele>
        <time>2012-08-16T17:12:09.000Z</time>
      </trkpt>
      <trkpt lat="46.45748" lon="6.05243">
        <ele>1181.3</ele>
        <time>2012-08-16T17:12:11.000Z</time>
      </trkpt>
      <trkpt lat="46.45744" lon="6.05238">
        <ele>1182.2</ele>
        <time>2012-08-16T17:12:13.000Z</time>
      </trkpt>
      <trkpt lat="46.45739" lon="6.05234">
        <ele>1180.8</ele>
        <time>2012-08-16T17:12:15.000Z</time>
      </trkpt>
      <trkpt lat="46.45733" lon="6.0523">
        <ele>1180.1</ele>
        <time>2012-08-16T17:12:17.000Z</time>
      </trkpt>
      <trkpt lat="46.45728" lon="6.05226">
        <ele>1177.9</ele>
        <time>2012-08-16T17:12:19.000Z</time>
      </trkpt>
      <trkpt lat="46.45724" lon="6.05221">
        <ele>1177.1</ele>
        <time>2012-08-16T17:12:21.000Z</time>
      </trkpt>
      <trkpt lat="46.4572" lon="6.05216">
        <ele>1178.2</ele>
        <time>2012-08-16T17:12:23.000Z</time>
      </trkpt>
      <trkpt lat="46.45715" lon="6.0521">
        <ele>1177</ele>
        <time>2012-08-16T17:12:26.000Z</time>
      </trkpt>
      <trkpt lat="46.45711" lon="6.05205">
        <ele>1175.7</ele>
        <time>2012-08-16T17:12:28.000Z</time>
      </trkpt>
      <trkpt lat="46.45706" lon="6.052">
        <ele>1175.9</ele>
        <time>2012-08-16T17:12:30.000Z</time>
      </trkpt>
      <trkpt lat="46.45701" lon="6.05196">
        <ele>1178.7</ele>
        <time>2012-08-16T17:12:32.000Z</time>
      </trkpt>
      <trkpt lat="46.45696" lon="6.05193">
        <ele>1178.9</ele>
        <time>2012-08-16T17:12:34.000Z</time>
      </trkpt>
      <trkpt lat="46.4569" lon="6.0519">
        <ele>1177.6</ele>
        <time>2012-08-16T17:12:36.000Z</time>
      </trkpt>
      <trkpt lat="46.45685" lon="6.05187">
        <ele>1175.9</ele>
        <time>2012-08-16T17:12:38.000Z</time>
      </trkpt>
      <trkpt lat="46.4568" lon="6.05182">
        <ele>1174.8</ele>
        <time>2012-08-16T17:12:40.000Z</time>
      </trkpt>
      <trkpt lat="46.45676" lon="6.05177">
        <ele>1175</ele>
        <time>2012-08-16T17:12:42.000Z</time>
      </trkpt>
      <trkpt lat="46.45672" lon="6.05171">
        <ele>1174.9</ele>
        <time>2012-08-16T17:12:44.000Z</time>
      </trkpt>
      <trkpt lat="46.45669" lon="6.05162">
        <ele>1176.4</ele>
        <time>2012-08-16T17:12:46.000Z</time>
      </trkpt>
      <trkpt lat="46.45666" lon="6.05153">
        <ele>1175.4</ele>
        <time>2012-08-16T17:12:48.000Z</time>
      </trkpt>
      <trkpt lat="46.45664" lon="6.05147">
        <ele>1175.9</ele>
        <time>2012-08-16T17:12:50.000Z</time>
      </trkpt>
      <trkpt lat="46.45663" lon="6.05139">
        <ele>1175.9</ele>
        <time>2012-08-16T17:12:53.000Z</time>
      </trkpt>
      <trkpt lat="46.4566" lon="6.0513">
        <ele>1176.1</ele>
        <time>2012-08-16T17:12:56.000Z</time>
      </trkpt>
      <trkpt lat="46.45657" lon="6.05125">
        <ele>1175</ele>
        <time>2012-08-16T17:12:58.000Z</time>
      </trkpt>
      <trkpt lat="46.45652" lon="6.05119">
        <ele>1175.5</ele>
        <time>2012-08-16T17:13:00.000Z</time>
      </trkpt>
      <trkpt lat="46.45646" lon="6.05112">
        <ele>1174.1</ele>
        <time>2012-08-16T17:13:02.000Z</time>
      </trkpt>
      <trkpt lat="46.45642" lon="6.05104">
        <ele>1174.2</ele>
        <time>2012-08-16T17:13:04.000Z</time>
      </trkpt>
      <trkpt lat="46.45638" lon="6.05096">
        <ele>1175.9</ele>
        <time>2012-08-16T17:13:06.000Z</time>
      </trkpt>
      <trkpt lat="46.45636" lon="6.05088">
        <ele>1177.1</ele>
        <time>2012-08-16T17:13:08.000Z</time>
      </trkpt>
      <trkpt lat="46.45633" lon="6.05079">
        <ele>1177.7</ele>
        <time>2012-08-16T17:13:10.000Z</time>
      </trkpt>
      <trkpt lat="46.4563" lon="6.05072">
        <ele>1177.2</ele>
        <time>2012-08-16T17:13:12.000Z</time>
      </trkpt>
      <trkpt lat="46.45627" lon="6.05066">
        <ele>1176.2</ele>
        <time>2012-08-16T17:13:14.000Z</time>
      </trkpt>
      <trkpt lat="46.45622" lon="6.0506">
        <ele>1174.9</ele>
        <time>2012-08-16T17:13:16.000Z</time>
      </trkpt>
      <trkpt lat="46.45617" lon="6.05053">
        <ele>1174.7</ele>
        <time>2012-08-16T17:13:18.000Z</time>
      </trkpt>
      <trkpt lat="46.45612" lon="6.05048">
        <ele>1172.9</ele>
        <time>2012-08-16T17:13:20.000Z</time>
      </trkpt>
      <trkpt lat="46.45607" lon="6.05042">
        <ele>1173.2</ele>
        <time>2012-08-16T17:13:22.000Z</time>
      </trkpt>
      <trkpt lat="46.45603" lon="6.05037">
        <ele>1172.9</ele>
        <time>2012-08-16T17:13:24.000Z</time>
      </trkpt>
      <trkpt lat="46.45598" lon="6.05031">
        <ele>1170.9</ele>
        <time>2012-08-16T17:13:26.000Z</time>
      </trkpt>
      <trkpt lat="46.45594" lon="6.05026">
        <ele>1170.1</ele>
        <time>2012-08-16T17:13:28.000Z</time>
      </trkpt>
      <trkpt lat="46.4559" lon="6.05022">
        <ele>1169.4</ele>
        <time>2012-08-16T17:13:30.000Z</time>
      </trkpt>
      <trkpt lat="46.45587" lon="6.05016">
        <ele>1168.2</ele>
        <time>2012-08-16T17:13:32.000Z</time>
      </trkpt>
      <trkpt lat="46.45583" lon="6.0501">
        <ele>1168.9</ele>
        <time>2012-08-16T17:13:34.000Z</time>
      </trkpt>
      <trkpt lat="46.45579" lon="6.05004">
        <ele>1168.4</ele>
        <time>2012-08-16T17:13:36.000Z</time>
      </trkpt>
      <trkpt lat="46.45575" lon="6.04997">
        <ele>1167.4</ele>
        <time>2012-08-16T17:13:38.000Z</time>
      </trkpt>
      <trkpt lat="46.4557" lon="6.04991">
        <ele>1167.4</ele>
        <time>2012-08-16T17:13:40.000Z</time>
      </trkpt>
      <trkpt lat="46.45567" lon="6.04983">
        <ele>1164.6</ele>
        <time>2012-08-16T17:13:43.000Z</time>
      </trkpt>
      <trkpt lat="46.45568" lon="6.04972">
        <ele>1165.1</ele>
        <time>2012-08-16T17:13:46.000Z</time>
      </trkpt>
      <trkpt lat="46.45571" lon="6.04964">
        <ele>1164.4</ele>
        <time>2012-08-16T17:13:48.000Z</time>
      </trkpt>
      <trkpt lat="46.45576" lon="6.04957">
        <ele>1162.9</ele>
        <time>2012-08-16T17:13:50.000Z</time>
      </trkpt>
      <trkpt lat="46.45581" lon="6.0495">
        <ele>1166</ele>
        <time>2012-08-16T17:13:52.000Z</time>
      </trkpt>
      <trkpt lat="46.45586" lon="6.04944">
        <ele>1170.4</ele>
        <time>2012-08-16T17:13:54.000Z</time>
      </trkpt>
      <trkpt lat="46.45591" lon="6.04938">
        <ele>1171.1</ele>
        <time>2012-08-16T17:13:56.000Z</time>
      </trkpt>
      <trkpt lat="46.45595" lon="6.04932">
        <ele>1171.9</ele>
        <time>2012-08-16T17:13:58.000Z</time>
      </trkpt>
      <trkpt lat="46.45599" lon="6.04926">
        <ele>1173.1</ele>
        <time>2012-08-16T17:14:00.000Z</time>
      </trkpt>
      <trkpt lat="46.45602" lon="6.0492">
        <ele>1173.3</ele>
        <time>2012-08-16T17:14:02.000Z</time>
      </trkpt>
      <trkpt lat="46.45606" lon="6.04915">
        <ele>1173.6</ele>
        <time>2012-08-16T17:14:04.000Z</time>
      </trkpt>
      <trkpt lat="46.45611" lon="6.04907">
        <ele>1173.7</ele>
        <time>2012-08-16T17:14:06.000Z</time>
      </trkpt>
      <trkpt lat="46.45614" lon="6.04902">
        <ele>1173.3</ele>
        <time>2012-08-16T17:14:07.000Z</time>
      </trkpt>
      <trkpt lat="46.45617" lon="6.04896">
        <ele>1172.5</ele>
        <time>2012-08-16T17:14:08.000Z</time>
      </trkpt>
      <trkpt lat="46.45624" lon="6.04888">
        <ele>1172.3</ele>
        <time>2012-08-16T17:14:10.000Z</time>
      </trkpt>
      <trkpt lat="46.45631" lon="6.04887">
        <ele>1170.2</ele>
        <time>2012-08-16T17:14:12.000Z</time>
      </trkpt>
      <trkpt lat="46.45637" lon="6.04887">
        <ele>1175.6</ele>
        <time>2012-08-16T17:14:14.000Z</time>
      </trkpt>
      <trkpt lat="46.45643" lon="6.04891">
        <ele>1178</ele>
        <time>2012-08-16T17:14:16.000Z</time>
      </trkpt>
      <trkpt lat="46.45648" lon="6.04895">
        <ele>1178.3</ele>
        <time>2012-08-16T17:14:18.000Z</time>
      </trkpt>
      <trkpt lat="46.45653" lon="6.04899">
        <ele>1179.2</ele>
        <time>2012-08-16T17:14:20.000Z</time>
      </trkpt>
      <trkpt lat="46.45658" lon="6.049">
        <ele>1182.1</ele>
        <time>2012-08-16T17:14:22.000Z</time>
      </trkpt>
      <trkpt lat="46.45664" lon="6.04898">
        <ele>1181</ele>
        <time>2012-08-16T17:14:24.000Z</time>
      </trkpt>
      <trkpt lat="46.45668" lon="6.04896">
        <ele>1179.4</ele>
        <time>2012-08-16T17:14:26.000Z</time>
      </trkpt>
      <trkpt lat="46.45673" lon="6.04895">
        <ele>1181.7</ele>
        <time>2012-08-16T17:14:29.000Z</time>
      </trkpt>
      <trkpt lat="46.45678" lon="6.04893">
        <ele>1183.1</ele>
        <time>2012-08-16T17:14:33.000Z</time>
      </trkpt>
      <trkpt lat="46.45682" lon="6.04889">
        <ele>1184.3</ele>
        <time>2012-08-16T17:14:35.000Z</time>
      </trkpt>
      <trkpt lat="46.45688" lon="6.04883">
        <ele>1186.3</ele>
        <time>2012-08-16T17:14:38.000Z</time>
      </trkpt>
      <trkpt lat="46.45694" lon="6.04881">
        <ele>1186.3</ele>
        <time>2012-08-16T17:14:41.000Z</time>
      </trkpt>
      <trkpt lat="46.45699" lon="6.04887">
        <ele>1188.6</ele>
        <time>2012-08-16T17:14:43.000Z</time>
      </trkpt>
      <trkpt lat="46.45703" lon="6.04894">
        <ele>1189.8</ele>
        <time>2012-08-16T17:14:45.000Z</time>
      </trkpt>
      <trkpt lat="46.45705" lon="6.049">
        <ele>1194.8</ele>
        <time>2012-08-16T17:14:46.000Z</time>
      </trkpt>
      <trkpt lat="46.45708" lon="6.04905">
        <ele>1196.6</ele>
        <time>2012-08-16T17:14:48.000Z</time>
      </trkpt>
      <trkpt lat="46.45712" lon="6.04912">
        <ele>1197</ele>
        <time>2012-08-16T17:14:50.000Z</time>
      </trkpt>
      <trkpt lat="46.45719" lon="6.04915">
        <ele>1198.9</ele>
        <time>2012-08-16T17:14:52.000Z</time>
      </trkpt>
      <trkpt lat="46.45726" lon="6.04916">
        <ele>1200.3</ele>
        <time>2012-08-16T17:14:54.000Z</time>
      </trkpt>
      <trkpt lat="46.45733" lon="6.04916">
        <ele>1200.3</ele>
        <time>2012-08-16T17:14:56.000Z</time>
      </trkpt>
      <trkpt lat="46.4574" lon="6.04916">
        <ele>1196.6</ele>
        <time>2012-08-16T17:14:58.000Z</time>
      </trkpt>
      <trkpt lat="46.45745" lon="6.04917">
        <ele>1195.9</ele>
        <time>2012-08-16T17:14:59.000Z</time>
      </trkpt>
      <trkpt lat="46.4575" lon="6.04916">
        <ele>1194.9</ele>
        <time>2012-08-16T17:15:01.000Z</time>
      </trkpt>
      <trkpt lat="46.45757" lon="6.04913">
        <ele>1192.7</ele>
        <time>2012-08-16T17:15:05.000Z</time>
      </trkpt>
      <trkpt lat="46.45761" lon="6.04909">
        <ele>1186.4</ele>
        <time>2012-08-16T17:15:09.000Z</time>
      </trkpt>
      <trkpt lat="46.45765" lon="6.04912">
        <ele>1182.7</ele>
        <time>2012-08-16T17:15:15.000Z</time>
      </trkpt>
      <trkpt lat="46.45765" lon="6.04912">
        <ele>1182.7</ele>
        <time>2012-08-16T17:15:15.000Z</time>
      </trkpt>
      <trkpt lat="46.45765" lon="6.04912">
        <ele>1182.7</ele>
        <time>2012-08-16T17:15:16.000Z</time>
      </trkpt>
      <trkpt lat="46.4577" lon="6.04913">
        <ele>1180.8</ele>
        <time>2012-08-16T17:15:21.000Z</time>
      </trkpt>
    </trkseg>
  </trk>
</gpx>